Observation data for Claude 12 Southwest on 08/13/2019      Previous  Date       Current Mesonet Observations  Soil Data  Daily Summary Page  Observations in Plain Language
KCL1 130500Z 05018KT 23/18 A3003 RMK A01 T02250182  RH  077%=      5-min Rain = 0
KCL1 130501Z 06018KT 23/18 A3003 RMK A01 T02250181  RH  076%=      5-min Rain = 0
KCL1 130502Z 06019KT 23/18 A3002 RMK A01 T02250180  RH  076%=      5-min Rain = 0
KCL1 130503Z 06021G26KT 23/18 A3002 RMK A01 T02260180  RH  075%=      5-min Rain = 0
KCL1 130504Z 06017G22KT 23/18 A3002 RMK A01 T02270180  RH  075%=      5-min Rain = 0
KCL1 130505Z 06017G23KT 23/18 A3002 RMK A01 T02270180  RH  075%=      5-min Rain = 0
KCL1 130506Z 06017G22KT 23/18 A3002 RMK A01 T02260180  RH  075%=      5-min Rain = 0
KCL1 130507Z 06019KT 23/18 A3002 RMK A01 T02260180  RH  075%=      5-min Rain = 0
KCL1 130508Z 05014KT 23/18 A3002 RMK A01 T02260179  RH  075%=      5-min Rain = 0
KCL1 130509Z 06017G22KT 23/18 A3002 RMK A01 T02260180  RH  075%=      5-min Rain = 0
KCL1 130510Z 06018G23KT 23/18 A3002 RMK A01 T02260179  RH  075%=      5-min Rain = 0
KCL1 130511Z 06017G25KT 23/18 A3002 RMK A01 T02260179  RH  075%=      5-min Rain = 0
KCL1 130512Z 06016KT 23/18 A3002 RMK A01 T02260179  RH  075%=      5-min Rain = 0
KCL1 130513Z 06019G25KT 23/18 A3002 RMK A01 T02260179  RH  075%=      5-min Rain = 0
KCL1 130514Z 06019KT 23/18 A3001 RMK A01 T02260179  RH  075%=      5-min Rain = 0
KCL1 130515Z 05017G22KT 23/18 A3001 RMK A01 T02260179  RH  075%=      5-min Rain = 0
KCL1 130516Z 06017G22KT 23/18 A3001 RMK A01 T02260180  RH  075%=      5-min Rain = 0
KCL1 130517Z 06016KT 23/18 A3001 RMK A01 T02260180  RH  075%=      5-min Rain = 0
KCL1 130518Z 06017KT 23/18 A3001 RMK A01 T02250179  RH  075%=      5-min Rain = 0
KCL1 130519Z 06016KT 23/18 A3002 RMK A01 T02250180  RH  075%=      5-min Rain = 0
KCL1 130520Z 07017KT 23/18 A3002 RMK A01 T02250180  RH  075%=      5-min Rain = 0
KCL1 130521Z 07018KT 23/18 A3002 RMK A01 T02250180  RH  075%=      5-min Rain = 0
KCL1 130522Z 07017KT 23/18 A3002 RMK A01 T02250180  RH  076%=      5-min Rain = 0
KCL1 130523Z 07019KT 23/18 A3002 RMK A01 T02250181  RH  076%=      5-min Rain = 0
KCL1 130524Z 07017KT 23/18 A3002 RMK A01 T02250181  RH  076%=      5-min Rain = 0
KCL1 130525Z 07017KT 23/18 A3002 RMK A01 T02250181  RH  076%=      5-min Rain = 0
KCL1 130526Z 07014KT 22/18 A3002 RMK A01 T02240182  RH  077%=      5-min Rain = 0
KCL1 130527Z 07017KT 22/18 A3002 RMK A01 T02240182  RH  077%=      5-min Rain = 0
KCL1 130528Z 07017G23KT 22/18 A3002 RMK A01 T02240181  RH  077%=      5-min Rain = 0
KCL1 130529Z 07018KT 23/18 A3002 RMK A01 T02250182  RH  077%=      5-min Rain = 0
KCL1 130530Z 08015KT 23/18 A3002 RMK A01 T02250183  RH  077%=      5-min Rain = 0
KCL1 130531Z 08016KT 22/19 A3002 RMK A01 T02240185  RH  078%=      5-min Rain = 0
KCL1 130532Z 07018G23KT 22/19 A3002 RMK A01 T02220185  RH  079%=      5-min Rain = 0
KCL1 130533Z 07019KT 22/18 A3002 RMK A01 T02210184  RH  080%=      5-min Rain = 0
KCL1 130534Z 07017KT 22/19 A3002 RMK A01 T02220185  RH  080%=      5-min Rain = 0
KCL1 130535Z 07019KT 22/19 A3002 RMK A01 T02210185  RH  080%=      5-min Rain = 0
KCL1 130536Z 08020KT 22/19 A3002 RMK A01 T02200185  RH  080%=      5-min Rain = 0
KCL1 130537Z 08017KT 22/19 A3003 RMK A01 T02210186  RH  081%=      5-min Rain = 0
KCL1 130538Z 08021KT 22/19 A3003 RMK A01 T02200185  RH  081%=      5-min Rain = 0
KCL1 130539Z 07021KT 22/19 A3003 RMK A01 T02200185  RH  080%=      5-min Rain = 0
KCL1 130540Z 08018G25KT 22/19 A3003 RMK A01 T02200185  RH  081%=      5-min Rain = 0
KCL1 130541Z 08019KT 22/19 A3003 RMK A01 T02200186  RH  081%=      5-min Rain = 0
KCL1 130542Z 07017KT 22/19 A3003 RMK A01 T02200186  RH  081%=      5-min Rain = 0
KCL1 130543Z 08019G24KT 22/19 A3003 RMK A01 T02190186  RH  082%=      5-min Rain = 0
KCL1 130544Z 08019KT 22/19 A3003 RMK A01 T02180187  RH  082%=      5-min Rain = 0
KCL1 130545Z 08017KT 22/19 A3003 RMK A01 T02180187  RH  083%=      5-min Rain = 0
KCL1 130546Z 08018G24KT 22/19 A3003 RMK A01 T02180187  RH  083%=      5-min Rain = 0
KCL1 130547Z 08017KT 22/19 A3003 RMK A01 T02180187  RH  083%=      5-min Rain = 0
KCL1 130548Z 08016G21KT 22/19 A3003 RMK A01 T02180188  RH  083%=      5-min Rain = 0
KCL1 130549Z 09017KT 22/19 A3003 RMK A01 T02170188  RH  083%=      5-min Rain = 0
KCL1 130550Z 08018KT 22/19 A3003 RMK A01 T02170188  RH  083%=      5-min Rain = 0
KCL1 130551Z 08018KT 22/19 A3003 RMK A01 T02170188  RH  084%=      5-min Rain = 0
KCL1 130552Z 08020KT 22/19 A3003 RMK A01 T02170188  RH  084%=      5-min Rain = 0
KCL1 130553Z 08018KT 22/19 A3003 RMK A01 T02170188  RH  084%=      5-min Rain = 0
KCL1 130554Z 09015KT 22/19 A3003 RMK A01 T02160189  RH  084%=      5-min Rain = 0
KCL1 130555Z 08016KT 22/19 A3003 RMK A01 T02160189  RH  085%=      5-min Rain = 0
KCL1 130556Z 08015KT 22/19 A3003 RMK A01 T02160189  RH  085%=      5-min Rain = 0
KCL1 130557Z 08017KT 22/19 A3003 RMK A01 T02150189  RH  085%=      5-min Rain = 0
KCL1 130558Z 08016KT 22/19 A3003 RMK A01 T02150189  RH  085%=      5-min Rain = 0
KCL1 130559Z 08016KT 22/19 A3003 RMK A01 T02150189  RH  085%=      5-min Rain = 0
KCL1 130600Z 08017G22KT 22/19 A3003 RMK A01 T02150189  RH  085%=      5-min Rain = 0
KCL1 130601Z 08018KT 22/19 A3003 RMK A01 T02160189  RH  085%=      5-min Rain = 0
KCL1 130602Z 08016KT 22/19 A3003 RMK A01 T02160189  RH  084%=      5-min Rain = 0
KCL1 130603Z 08016G21KT 22/19 A3003 RMK A01 T02160189  RH  085%=      5-min Rain = 0
KCL1 130604Z 08015KT 22/19 A3002 RMK A01 T02160189  RH  084%=      5-min Rain = 0
KCL1 130605Z 08014KT 22/19 A3002 RMK A01 T02160189  RH  085%=      5-min Rain = 0
KCL1 130606Z 09015KT 22/19 A3003 RMK A01 T02160190  RH  085%=      5-min Rain = 0
KCL1 130607Z 09018KT 22/19 A3003 RMK A01 T02160190  RH  085%=      5-min Rain = 0
KCL1 130608Z 09017KT 22/19 A3003 RMK A01 T02160190  RH  085%=      5-min Rain = 0
KCL1 130609Z 09018KT 22/19 A3003 RMK A01 T02160191  RH  085%=      5-min Rain = 0
KCL1 130610Z 08015G20KT 22/19 A3003 RMK A01 T02160191  RH  085%=      5-min Rain = 0
KCL1 130611Z 09018KT 22/19 A3003 RMK A01 T02160191  RH  086%=      5-min Rain = 0
KCL1 130612Z 08018KT 22/19 A3003 RMK A01 T02160191  RH  086%=      5-min Rain = 0
KCL1 130613Z 08017KT 22/19 A3002 RMK A01 T02160191  RH  086%=      5-min Rain = 0
KCL1 130614Z 08012KT 22/19 A3002 RMK A01 T02160192  RH  086%=      5-min Rain = 0
KCL1 130615Z 09015KT 22/19 A3002 RMK A01 T02150192  RH  087%=      5-min Rain = 0
KCL1 130616Z 09016KT 22/19 A3002 RMK A01 T02150192  RH  087%=      5-min Rain = 0
KCL1 130617Z 09014KT 22/19 A3002 RMK A01 T02150193  RH  087%=      5-min Rain = 0
KCL1 130618Z 08014KT 22/19 A3002 RMK A01 T02150194  RH  088%=      5-min Rain = 0
KCL1 130619Z 09014KT 22/19 A3002 RMK A01 T02150194  RH  088%=      5-min Rain = 0
KCL1 130620Z 09015KT 21/19 A3002 RMK A01 T02140194  RH  088%=      5-min Rain = 0
KCL1 130621Z 09013KT 21/19 A3002 RMK A01 T02140194  RH  088%=      5-min Rain = 0
KCL1 130622Z 09011KT 21/20 A3003 RMK A01 T02140195  RH  089%=      5-min Rain = 0
KCL1 130623Z 09015KT 21/20 A3003 RMK A01 T02140195  RH  089%=      5-min Rain = 0
KCL1 130624Z 09015KT 21/20 A3003 RMK A01 T02140195  RH  089%=      5-min Rain = 0
KCL1 130625Z 09012KT 21/20 A3003 RMK A01 T02140195  RH  089%=      5-min Rain = 0
KCL1 130626Z 08013KT 21/20 A3002 RMK A01 T02130196  RH  090%=      5-min Rain = 0
KCL1 130627Z 09011KT 21/20 A3002 RMK A01 T02140197  RH  090%=      5-min Rain = 0
KCL1 130628Z 09012KT 21/20 A3002 RMK A01 T02130197  RH  091%=      5-min Rain = 0
KCL1 130629Z 09012KT 21/20 A3002 RMK A01 T02130197  RH  091%=      5-min Rain = 0
KCL1 130630Z 09012G17KT 21/20 A3002 RMK A01 T02130197  RH  091%=      5-min Rain = 0
KCL1 130631Z 09012KT 21/20 A3002 RMK A01 T02130198  RH  091%=      5-min Rain = 0
KCL1 130632Z 09013KT 21/20 A3002 RMK A01 T02130197  RH  091%=      5-min Rain = 0
KCL1 130633Z 08014KT 21/20 A3002 RMK A01 T02130197  RH  091%=      5-min Rain = 0
KCL1 130634Z 08015KT 21/20 A3002 RMK A01 T02130197  RH  091%=      5-min Rain = 0
KCL1 130635Z 08014KT 21/20 A3002 RMK A01 T02130198  RH  091%=      5-min Rain = 0
KCL1 130636Z 08013KT 21/20 A3002 RMK A01 T02130198  RH  091%=      5-min Rain = 0
KCL1 130637Z 08013KT 21/20 A3002 RMK A01 T02130199  RH  092%=      5-min Rain = 0
KCL1 130638Z 08012KT 21/20 A3002 RMK A01 T02130199  RH  092%=      5-min Rain = 0
KCL1 130639Z 08013KT 21/20 A3002 RMK A01 T02130199  RH  092%=      5-min Rain = 0
KCL1 130640Z 08013KT 21/20 A3002 RMK A01 T02130200  RH  092%=      5-min Rain = 0
KCL1 130641Z 07011KT 21/20 A3002 RMK A01 T02130200  RH  093%=      5-min Rain = 0
KCL1 130642Z 07012KT 21/20 A3003 RMK A01 T02120201  RH  093%=      5-min Rain = 0
KCL1 130643Z 08010G15KT 21/20 A3003 RMK A01 T02120202  RH  094%=      5-min Rain = 0
KCL1 130644Z 08011KT 21/20 A3003 RMK A01 T02120202  RH  094%=      5-min Rain = 0
KCL1 130645Z 08013G18KT 21/20 A3002 RMK A01 T02120203  RH  095%=      5-min Rain = 0
KCL1 130646Z 07013KT 21/20 A3002 RMK A01 T02110204  RH  096%=      5-min Rain = 0
KCL1 130647Z 07014G19KT 21/21 A3002 RMK A01 T02110205  RH  096%=      5-min Rain = 0
KCL1 130648Z 07013KT 21/21 A3002 RMK A01 T02110205  RH  096%=      5-min Rain = 0
KCL1 130649Z 07014KT 21/21 A3002 RMK A01 T02110205  RH  097%=      5-min Rain = 0
KCL1 130650Z 07014G20KT 21/21 A3002 RMK A01 T02100206  RH  097%=      5-min Rain = 0
KCL1 130651Z 07015G20KT 21/21 A3002 RMK A01 T02100206  RH  098%=      5-min Rain = 0
KCL1 130652Z 07014KT 21/21 A3002 RMK A01 T02100206  RH  098%=      5-min Rain = 0
KCL1 130653Z 08013G18KT 21/21 A3002 RMK A01 T02100207  RH  098%=      5-min Rain = 0
KCL1 130654Z 08015KT 21/21 A3002 RMK A01 T02090207  RH  098%=      5-min Rain = 0
KCL1 130655Z 08015KT 21/21 A3002 RMK A01 T02100207  RH  098%=      5-min Rain = 0
KCL1 130656Z 08014KT 21/21 A3003 RMK A01 T02090207  RH  098%=      5-min Rain = 0
KCL1 130657Z 08011KT 21/21 A3003 RMK A01 T02090208  RH  099%=      5-min Rain = 0
KCL1 130658Z 08012KT 21/21 A3003 RMK A01 T02090208  RH  100%=      5-min Rain = 0
KCL1 130659Z 08012KT 21/21 A3003 RMK A01 T02080209  RH  100%=      5-min Rain = 0
KCL1 130700Z 08012KT 21/21 A3003 RMK A01 T02080208  RH  100%=      5-min Rain = 0
KCL1 130701Z 09010KT 21/21 A3003 RMK A01 T02080208  RH  100%=      5-min Rain = 0
KCL1 130702Z 09010KT 21/21 A3003 RMK A01 T02080208  RH  100%=      5-min Rain = 0
KCL1 130703Z 09010KT 21/21 A3003 RMK A01 T02070208  RH  100%=      5-min Rain = 0
KCL1 130704Z 09009KT 21/21 A3003 RMK A01 T02070207  RH  100%=      5-min Rain = 0
KCL1 130705Z 09009KT 21/21 A3003 RMK A01 T02070207  RH  100%=      5-min Rain = 0
KCL1 130706Z 08009KT 21/21 A3003 RMK A01 T02070207  RH  100%=      5-min Rain = 0
KCL1 130707Z 08009KT 21/21 A3003 RMK A01 T02070207  RH  100%=      5-min Rain = 0
KCL1 130708Z 08009KT 21/21 A3003 RMK A01 T02070207  RH  100%=      5-min Rain = 0
KCL1 130709Z 09009KT 21/21 A3003 RMK A01 T02070207  RH  100%=      5-min Rain = 0
KCL1 130710Z 08010KT 21/21 A3003 RMK A01 T02070207  RH  100%=      5-min Rain = 0
KCL1 130711Z 08011KT 21/21 A3003 RMK A01 T02070207  RH  100%=      5-min Rain = 0
KCL1 130712Z 08009KT 21/21 A3003 RMK A01 T02070207  RH  100%=      5-min Rain = 0
KCL1 130713Z 08009KT 21/21 A3002 RMK A01 T02060207  RH  100%=      5-min Rain = 0
KCL1 130714Z 08013KT 21/21 A3003 RMK A01 T02070207  RH  100%=      5-min Rain = 0
KCL1 130715Z 08014KT 21/21 A3003 RMK A01 T02070207  RH  100%=      5-min Rain = 0
KCL1 130716Z 08012KT 21/21 A3003 RMK A01 T02070207  RH  100%=      5-min Rain = 0
KCL1 130717Z 08011KT 21/21 A3003 RMK A01 T02070207  RH  100%=      5-min Rain = 0
KCL1 130718Z 08011KT 21/21 A3003 RMK A01 T02070207  RH  100%=      5-min Rain = 0
KCL1 130719Z 08014KT 21/21 A3003 RMK A01 T02070207  RH  100%=      5-min Rain = 0
KCL1 130720Z 08011KT 21/21 A3003 RMK A01 T02070207  RH  100%=      5-min Rain = 0
KCL1 130721Z 08011KT 21/21 A3003 RMK A01 T02070207  RH  100%=      5-min Rain = 0
KCL1 130722Z 08012KT 21/21 A3003 RMK A01 T02070207  RH  100%=      5-min Rain = 0
KCL1 130723Z 08011KT 21/21 A3002 RMK A01 T02070207  RH  100%=      5-min Rain = 0
KCL1 130724Z 08010KT 21/21 A3002 RMK A01 T02070207  RH  100%=      5-min Rain = 0
KCL1 130725Z 08010KT 21/21 A3002 RMK A01 T02070207  RH  100%=      5-min Rain = 0
KCL1 130726Z 08012KT 21/21 A3002 RMK A01 T02070207  RH  100%=      5-min Rain = 0
KCL1 130727Z 08010KT 21/21 A3002 RMK A01 T02070207  RH  100%=      5-min Rain = 0
KCL1 130728Z 08012KT 21/21 A3002 RMK A01 T02070207  RH  100%=      5-min Rain = 0
KCL1 130729Z 08011KT 21/21 A3002 RMK A01 T02070207  RH  100%=      5-min Rain = 0
KCL1 130730Z 08011KT 21/21 A3002 RMK A01 T02070207  RH  100%=      5-min Rain = 0
KCL1 130731Z 08011KT 21/21 A3002 RMK A01 T02070207  RH  100%=      5-min Rain = 0
KCL1 130732Z 08014KT 21/21 A3003 RMK A01 T02070207  RH  100%=      5-min Rain = 0
KCL1 130733Z 09012KT 21/21 A3002 RMK A01 T02070207  RH  100%=      5-min Rain = 0
KCL1 130734Z 08013KT 21/21 A3002 RMK A01 T02070207  RH  100%=      5-min Rain = 0
KCL1 130735Z 08012KT 21/21 A3002 RMK A01 T02060207  RH  100%=      5-min Rain = 0
KCL1 130736Z 08011KT 21/21 A3002 RMK A01 T02070207  RH  100%=      5-min Rain = 0
KCL1 130737Z 07011KT 21/21 A3002 RMK A01 T02070207  RH  100%=      5-min Rain = 0
KCL1 130738Z 08011KT 21/21 A3002 RMK A01 T02070207  RH  100%=      5-min Rain = 0
KCL1 130739Z 07011KT 21/21 A3002 RMK A01 T02060207  RH  100%=      5-min Rain = 0
KCL1 130740Z 07012KT 21/21 A3002 RMK A01 T02060207  RH  100%=      5-min Rain = 0
KCL1 130741Z 07011KT 21/21 A3002 RMK A01 T02060207  RH  100%=      5-min Rain = 0
KCL1 130742Z 07012KT 21/21 A3002 RMK A01 T02060206  RH  100%=      5-min Rain = 0
KCL1 130743Z 07011KT 21/21 A3002 RMK A01 T02060206  RH  100%=      5-min Rain = 0
KCL1 130744Z 07009KT 21/21 A3002 RMK A01 T02060206  RH  100%=      5-min Rain = 0
KCL1 130745Z 07010KT 21/21 A3002 RMK A01 T02060206  RH  100%=      5-min Rain = 0
KCL1 130746Z 07010KT 21/21 A3002 RMK A01 T02050205  RH  100%=      5-min Rain = 0
KCL1 130747Z 07010KT 21/21 A3002 RMK A01 T02050205  RH  100%=      5-min Rain = 0
KCL1 130748Z 07013KT 21/21 A3003 RMK A01 T02050206  RH  100%=      5-min Rain = 0
KCL1 130749Z 07013KT 21/21 A3003 RMK A01 T02050205  RH  100%=      5-min Rain = 0
KCL1 130750Z 08011KT 21/21 A3003 RMK A01 T02050205  RH  100%=      5-min Rain = 0
KCL1 130751Z 08010KT 21/21 A3003 RMK A01 T02050205  RH  100%=      5-min Rain = 0
KCL1 130752Z 07009KT 21/21 A3003 RMK A01 T02050205  RH  100%=      5-min Rain = 0
KCL1 130753Z 08011KT 21/21 A3003 RMK A01 T02050205  RH  100%=      5-min Rain = 0
KCL1 130754Z 07011KT 21/21 A3003 RMK A01 T02050205  RH  100%=      5-min Rain = 0
KCL1 130755Z 07011KT 21/21 A3003 RMK A01 T02050206  RH  100%=      5-min Rain = 0
KCL1 130756Z 07011KT 21/21 A3003 RMK A01 T02050206  RH  100%=      5-min Rain = 0
KCL1 130757Z 07011KT 21/21 A3003 RMK A01 T02050205  RH  100%=      5-min Rain = 0
KCL1 130758Z 07010KT 21/21 A3002 RMK A01 T02060206  RH  100%=      5-min Rain = 0
KCL1 130759Z 07009KT 21/21 A3003 RMK A01 T02060206  RH  100%=      5-min Rain = 0
KCL1 130800Z 08010KT 21/21 A3002 RMK A01 T02060206  RH  100%=      5-min Rain = 0
KCL1 130801Z 08009KT 21/21 A3002 RMK A01 T02060206  RH  100%=      5-min Rain = 0
KCL1 130802Z 08011KT 21/21 A3003 RMK A01 T02060206  RH  100%=      5-min Rain = 0
KCL1 130803Z 08010KT 21/21 A3003 RMK A01 T02050206  RH  100%=      5-min Rain = 0
KCL1 130804Z 08011KT 21/21 A3002 RMK A01 T02050205  RH  100%=      5-min Rain = 0
KCL1 130805Z 08011KT 21/21 A3003 RMK A01 T02050205  RH  100%=      5-min Rain = 0
KCL1 130806Z 07010KT 21/21 A3003 RMK A01 T02050205  RH  100%=      5-min Rain = 0
KCL1 130807Z 08009KT 21/21 A3003 RMK A01 T02050206  RH  100%=      5-min Rain = 0
KCL1 130808Z 08011KT 21/21 A3003 RMK A01 T02050205  RH  100%=      5-min Rain = 0
KCL1 130809Z 08010KT 21/21 A3002 RMK A01 T02050205  RH  100%=      5-min Rain = 0
KCL1 130810Z 08010KT 21/21 A3002 RMK A01 T02050205  RH  100%=      5-min Rain = 0
KCL1 130811Z 08011KT 20/20 A3002 RMK A01 T02040204  RH  100%=      5-min Rain = 0
KCL1 130812Z 08010KT 20/21 A3002 RMK A01 T02040205  RH  100%=      5-min Rain = 0
KCL1 130813Z 09009KT 20/20 A3002 RMK A01 T02040204  RH  100%=      5-min Rain = 0
KCL1 130814Z 08010KT 21/21 A3002 RMK A01 T02050205  RH  100%=      5-min Rain = 0
KCL1 130815Z 09012KT 21/21 A3002 RMK A01 T02050205  RH  100%=      5-min Rain = 0
KCL1 130816Z 09012KT 20/20 A3002 RMK A01 T02040204  RH  100%=      5-min Rain = 0
KCL1 130817Z 09013KT 20/21 A3002 RMK A01 T02040205  RH  100%=      5-min Rain = 0
KCL1 130818Z 09010KT 21/21 A3002 RMK A01 T02050205  RH  100%=      5-min Rain = 0
KCL1 130819Z 09011KT 21/21 A3002 RMK A01 T02050206  RH  100%=      5-min Rain = 0
KCL1 130820Z 08011KT 21/21 A3002 RMK A01 T02060206  RH  100%=      5-min Rain = 0
KCL1 130821Z 09010KT 21/21 A3002 RMK A01 T02050206  RH  100%=      5-min Rain = 0
KCL1 130822Z 08010KT 21/21 A3002 RMK A01 T02050205  RH  100%=      5-min Rain = 0
KCL1 130823Z 08012KT 21/21 A3002 RMK A01 T02050205  RH  100%=      5-min Rain = 0
KCL1 130824Z 09012KT 21/21 A3002 RMK A01 T02050205  RH  100%=      5-min Rain = 0
KCL1 130825Z 09011KT 21/21 A3002 RMK A01 T02050205  RH  100%=      5-min Rain = 0
KCL1 130826Z 09011KT 21/21 A3002 RMK A01 T02050206  RH  100%=      5-min Rain = 0
KCL1 130827Z 09011KT 21/21 A3002 RMK A01 T02060206  RH  100%=      5-min Rain = 0
KCL1 130828Z 09012KT 21/21 A3002 RMK A01 T02050205  RH  100%=      5-min Rain = 0
KCL1 130829Z 09009KT 21/21 A3002 RMK A01 T02050205  RH  100%=      5-min Rain = 0
KCL1 130830Z 09011KT 21/21 A3002 RMK A01 T02050205  RH  100%=      5-min Rain = 0
KCL1 130831Z 09011KT 21/21 A3002 RMK A01 T02050205  RH  100%=      5-min Rain = 0
KCL1 130832Z 09010KT 21/21 A3002 RMK A01 T02050205  RH  100%=      5-min Rain = 0
KCL1 130833Z 10012KT 21/21 A3002 RMK A01 T02050205  RH  100%=      5-min Rain = 0
KCL1 130834Z 09011KT 21/21 A3002 RMK A01 T02050205  RH  100%=      5-min Rain = 0
KCL1 130835Z 09012KT 21/21 A3002 RMK A01 T02050206  RH  100%=      5-min Rain = 0
KCL1 130836Z 09012KT 21/21 A3002 RMK A01 T02050205  RH  100%=      5-min Rain = 0
KCL1 130837Z 09010KT 21/21 A3002 RMK A01 T02050205  RH  100%=      5-min Rain = 0
KCL1 130838Z 09010KT 21/21 A3002 RMK A01 T02050205  RH  100%=      5-min Rain = 0
KCL1 130839Z 10009KT 21/21 A3002 RMK A01 T02050205  RH  100%=      5-min Rain = 0
KCL1 130840Z 10010KT 21/21 A3002 RMK A01 T02050205  RH  100%=      5-min Rain = 0
KCL1 130841Z 11008KT 21/21 A3002 RMK A01 T02050205  RH  100%=      5-min Rain = 0
KCL1 130842Z 11007KT 21/21 A3002 RMK A01 T02050205  RH  100%=      5-min Rain = 0
KCL1 130843Z 11008KT 20/21 A3002 RMK A01 T02040205  RH  100%=      5-min Rain = 0
KCL1 130844Z 12006KT 20/20 A3002 RMK A01 T02040204  RH  100%=      5-min Rain = 0
KCL1 130845Z 12005KT 20/20 A3002 RMK A01 T02040204  RH  100%=      5-min Rain = 0
KCL1 130846Z 11006KT 20/20 A3002 RMK A01 T02040204  RH  100%=      5-min Rain = 0
KCL1 130847Z 11005KT 20/20 A3002 RMK A01 T02030204  RH  100%=      5-min Rain = 0
KCL1 130848Z 10005KT 20/20 A3002 RMK A01 T02030204  RH  100%=      5-min Rain = 0
KCL1 130849Z 10007KT 20/20 A3002 RMK A01 T02030204  RH  100%=      5-min Rain = 0
KCL1 130850Z 09007KT 20/20 A3002 RMK A01 T02030203  RH  100%=      5-min Rain = 0
KCL1 130851Z 11006KT 20/20 A3003 RMK A01 T02030204  RH  100%=      5-min Rain = 0
KCL1 130852Z 10004KT 20/20 A3003 RMK A01 T02040204  RH  100%=      5-min Rain = 0
KCL1 130853Z 11006KT 20/20 A3003 RMK A01 T02030204  RH  100%=      5-min Rain = 0
KCL1 130854Z 11006KT 20/20 A3003 RMK A01 T02030203  RH  100%=      5-min Rain = 0
KCL1 130855Z 10006KT 20/20 A3003 RMK A01 T02030203  RH  100%=      5-min Rain = 0
KCL1 130856Z 11005KT 20/20 A3003 RMK A01 T02030203  RH  100%=      5-min Rain = 0
KCL1 130857Z 10007KT 20/20 A3003 RMK A01 T02030203  RH  100%=      5-min Rain = 0
KCL1 130858Z 11006KT 20/20 A3003 RMK A01 T02020203  RH  100%=      5-min Rain = 0
KCL1 130859Z 11005KT 20/20 A3003 RMK A01 T02020203  RH  100%=      5-min Rain = 0
KCL1 130900Z 10007KT 20/20 A3003 RMK A01 T02020202  RH  100%=      5-min Rain = 0
KCL1 130901Z 11006KT 20/20 A3003 RMK A01 T02020203  RH  100%=      5-min Rain = 0
KCL1 130902Z 10005KT 20/20 A3003 RMK A01 T02020203  RH  100%=      5-min Rain = 0
KCL1 130903Z 11005KT 20/20 A3003 RMK A01 T02020203  RH  100%=      5-min Rain = 0
KCL1 130904Z 10005KT 20/20 A3003 RMK A01 T02020203  RH  100%=      5-min Rain = 0
KCL1 130905Z 11006KT 20/20 A3003 RMK A01 T02020202  RH  100%=      5-min Rain = 0
KCL1 130906Z 10006KT 20/20 A3003 RMK A01 T02010202  RH  100%=      5-min Rain = 0
KCL1 130907Z 10006KT 20/20 A3003 RMK A01 T02020202  RH  100%=      5-min Rain = 0
KCL1 130908Z 10005KT 20/20 A3003 RMK A01 T02020202  RH  100%=      5-min Rain = 0
KCL1 130909Z 09005KT 20/20 A3003 RMK A01 T02020202  RH  100%=      5-min Rain = 0
KCL1 130910Z 10005KT 20/20 A3003 RMK A01 T02020202  RH  100%=      5-min Rain = 0
KCL1 130911Z 09005KT 20/20 A3003 RMK A01 T02010202  RH  100%=      5-min Rain = 0
KCL1 130912Z 10004KT 20/20 A3003 RMK A01 T02010201  RH  100%=      5-min Rain = 0
KCL1 130913Z 10005KT 20/20 A3003 RMK A01 T02010201  RH  100%=      5-min Rain = 0
KCL1 130914Z 10005KT 20/20 A3003 RMK A01 T02010201  RH  100%=      5-min Rain = 0
KCL1 130915Z 10005KT 20/20 A3004 RMK A01 T02010201  RH  100%=      5-min Rain = 0
KCL1 130916Z 10005KT 20/20 A3004 RMK A01 T02010201  RH  100%=      5-min Rain = 0
KCL1 130917Z 09004KT 20/20 A3004 RMK A01 T02010201  RH  100%=      5-min Rain = 0
KCL1 130918Z 09005KT 20/20 A3004 RMK A01 T02010201  RH  100%=      5-min Rain = 0
KCL1 130919Z 10004KT 20/20 A3004 RMK A01 T02000200  RH  100%=      5-min Rain = 0
KCL1 130920Z 10004KT 20/20 A3004 RMK A01 T02000200  RH  100%=      5-min Rain = 0
KCL1 130921Z 09003KT 20/20 A3004 RMK A01 T02000200  RH  100%=      5-min Rain = 0
KCL1 130922Z 08004KT 20/20 A3004 RMK A01 T02000200  RH  100%=      5-min Rain = 0
KCL1 130923Z 09004KT 20/20 A3004 RMK A01 T02000200  RH  100%=      5-min Rain = 0
KCL1 130924Z 09004KT 20/20 A3004 RMK A01 T01990200  RH  100%=      5-min Rain = 0
KCL1 130925Z 09004KT 20/20 A3004 RMK A01 T01990200  RH  100%=      5-min Rain = 0
KCL1 130926Z 09004KT 20/20 A3004 RMK A01 T01990199  RH  100%=      5-min Rain = 0
KCL1 130927Z 09004KT 20/20 A3004 RMK A01 T01990199  RH  100%=      5-min Rain = 0
KCL1 130928Z 09004KT 20/20 A3004 RMK A01 T01990200  RH  100%=      5-min Rain = 0
KCL1 130929Z 08004KT 20/20 A3004 RMK A01 T02000200  RH  100%=      5-min Rain = 0
KCL1 130930Z 08004KT 20/20 A3004 RMK A01 T01990199  RH  100%=      5-min Rain = 0
KCL1 130931Z 09004KT 20/20 A3004 RMK A01 T01990199  RH  100%=      5-min Rain = 0
KCL1 130932Z 09004KT 20/20 A3004 RMK A01 T01990199  RH  100%=      5-min Rain = 0
KCL1 130933Z 08004KT 20/20 A3004 RMK A01 T01990199  RH  100%=      5-min Rain = 0
KCL1 130934Z 08003KT 20/20 A3004 RMK A01 T01990199  RH  100%=      5-min Rain = 0
KCL1 130935Z 08003KT 20/20 A3004 RMK A01 T01990199  RH  100%=      5-min Rain = 0
KCL1 130936Z 09003KT 20/20 A3004 RMK A01 T01990199  RH  100%=      5-min Rain = 0
KCL1 130937Z 09002KT 20/20 A3004 RMK A01 T01990199  RH  100%=      5-min Rain = 0
KCL1 130938Z 09002KT 20/20 A3004 RMK A01 T01980198  RH  100%=      5-min Rain = 0
KCL1 130939Z 10002KT 20/20 A3004 RMK A01 T01980198  RH  100%=      5-min Rain = 0
KCL1 130940Z 11002KT 20/20 A3004 RMK A01 T01980198  RH  100%=      5-min Rain = 0
KCL1 130941Z 11002KT 20/20 A3004 RMK A01 T01980198  RH  100%=      5-min Rain = 0
KCL1 130942Z 11002KT 20/20 A3004 RMK A01 T01970198  RH  100%=      5-min Rain = 0
KCL1 130943Z 10002KT 20/20 A3004 RMK A01 T01980198  RH  100%=      5-min Rain = 0
KCL1 130944Z 11002KT 20/20 A3004 RMK A01 T01970198  RH  100%=      5-min Rain = 0
KCL1 130945Z 10003KT 20/20 A3004 RMK A01 T01970198  RH  100%=      5-min Rain = 0
KCL1 130946Z 10003KT 20/20 A3004 RMK A01 T01980198  RH  100%=      5-min Rain = 0
KCL1 130947Z 11003KT 20/20 A3004 RMK A01 T01980198  RH  100%=      5-min Rain = 0
KCL1 130948Z 11003KT 20/20 A3004 RMK A01 T01980198  RH  100%=      5-min Rain = 0
KCL1 130949Z 11003KT 20/20 A3004 RMK A01 T01980198  RH  100%=      5-min Rain = 0
KCL1 130950Z 12003KT 20/20 A3004 RMK A01 T01980198  RH  100%=      5-min Rain = 0
KCL1 130951Z 12003KT 20/20 A3004 RMK A01 T01970198  RH  100%=      5-min Rain = 0
KCL1 130952Z 12003KT 20/20 A3004 RMK A01 T01970198  RH  100%=      5-min Rain = 0
KCL1 130953Z 13003KT 20/20 A3004 RMK A01 T01970198  RH  100%=      5-min Rain = 0
KCL1 130954Z 13003KT 20/20 A3004 RMK A01 T01980198  RH  100%=      5-min Rain = 0
KCL1 130955Z 13003KT 20/20 A3004 RMK A01 T01970198  RH  100%=      5-min Rain = 0
KCL1 130956Z 13003KT 20/20 A3004 RMK A01 T01980198  RH  100%=      5-min Rain = 0
KCL1 130957Z 13003KT 20/20 A3004 RMK A01 T01970198  RH  100%=      5-min Rain = 0
KCL1 130958Z 14003KT 20/20 A3004 RMK A01 T01970198  RH  100%=      5-min Rain = 0
KCL1 130959Z 14003KT 20/20 A3004 RMK A01 T01970198  RH  100%=      5-min Rain = 0
KCL1 131000Z 14003KT 20/20 A3004 RMK A01 T01980198  RH  100%=      5-min Rain = 0
KCL1 131001Z 15003KT 20/20 A3004 RMK A01 T01970197  RH  100%=      5-min Rain = 0
KCL1 131002Z 15003KT 20/20 A3004 RMK A01 T01970197  RH  100%=      5-min Rain = 0
KCL1 131003Z 15003KT 20/20 A3004 RMK A01 T01970197  RH  100%=      5-min Rain = 0
KCL1 131004Z 15003KT 20/20 A3004 RMK A01 T01970197  RH  100%=      5-min Rain = 0
KCL1 131005Z 15003KT 20/20 A3004 RMK A01 T01960197  RH  100%=      5-min Rain = 0
KCL1 131006Z 16004KT 20/20 A3004 RMK A01 T01960197  RH  100%=      5-min Rain = 0
KCL1 131007Z 16004KT 20/20 A3004 RMK A01 T01970197  RH  100%=      5-min Rain = 0
KCL1 131008Z 17004KT 20/20 A3004 RMK A01 T01970197  RH  100%=      5-min Rain = 0
KCL1 131009Z 18004KT 20/20 A3004 RMK A01 T01970197  RH  100%=      5-min Rain = 0
KCL1 131010Z 17004KT 20/20 A3004 RMK A01 T01970197  RH  100%=      5-min Rain = 0
KCL1 131011Z 18004KT 20/20 A3004 RMK A01 T01970197  RH  100%=      5-min Rain = 0
KCL1 131012Z 19005KT 20/20 A3004 RMK A01 T01970197  RH  100%=      5-min Rain = 0
KCL1 131013Z 19005KT 20/20 A3004 RMK A01 T01970197  RH  100%=      5-min Rain = 0
KCL1 131014Z 20004KT 20/20 A3004 RMK A01 T01970198  RH  100%=      5-min Rain = 0
KCL1 131015Z 19004KT 20/20 A3004 RMK A01 T01980198  RH  100%=      5-min Rain = 0
KCL1 131016Z 20003KT 20/20 A3004 RMK A01 T01980198  RH  100%=      5-min Rain = 0
KCL1 131017Z 20004KT 20/20 A3004 RMK A01 T01980198  RH  100%=      5-min Rain = 0
KCL1 131018Z 21004KT 20/20 A3004 RMK A01 T01980199  RH  100%=      5-min Rain = 0
KCL1 131019Z 22004KT 20/20 A3004 RMK A01 T01990199  RH  100%=      5-min Rain = 0
KCL1 131020Z 22004KT 20/20 A3004 RMK A01 T01990199  RH  100%=      5-min Rain = 0
KCL1 131021Z 19004KT 20/20 A3004 RMK A01 T01990199  RH  100%=      5-min Rain = 0
KCL1 131022Z 21003KT 20/20 A3004 RMK A01 T01990199  RH  100%=      5-min Rain = 0
KCL1 131023Z 21004KT 20/20 A3004 RMK A01 T01990199  RH  100%=      5-min Rain = 0
KCL1 131024Z 21004KT 20/20 A3004 RMK A01 T01990200  RH  100%=      5-min Rain = 0
KCL1 131025Z 21004KT 20/20 A3004 RMK A01 T02000200  RH  100%=      5-min Rain = 0
KCL1 131026Z 22002KT 20/20 A3005 RMK A01 T02010201  RH  100%=      5-min Rain = 0
KCL1 131027Z 23002KT 20/20 A3005 RMK A01 T02020202  RH  100%=      5-min Rain = 0
KCL1 131028Z 25002KT 20/20 A3005 RMK A01 T02020202  RH  100%=      5-min Rain = 0
KCL1 131029Z 26001KT 20/20 A3005 RMK A01 T02020202  RH  100%=      5-min Rain = 0
KCL1 131030Z 29001KT 20/20 A3005 RMK A01 T02020202  RH  100%=      5-min Rain = 0
KCL1 131031Z 30002KT 20/20 A3005 RMK A01 T02020202  RH  100%=      5-min Rain = 0
KCL1 131032Z 31002KT 20/20 A3005 RMK A01 T02010201  RH  100%=      5-min Rain = 0
KCL1 131033Z 32002KT 20/20 A3005 RMK A01 T02000200  RH  100%=      5-min Rain = 0
KCL1 131034Z 31003KT 20/20 A3005 RMK A01 T01990199  RH  100%=      5-min Rain = 0
KCL1 131035Z 31002KT 20/20 A3005 RMK A01 T01990199  RH  100%=      5-min Rain = 0
KCL1 131036Z 32001KT 20/20 A3005 RMK A01 T01980199  RH  100%=      5-min Rain = 0
KCL1 131037Z 31001KT 20/20 A3005 RMK A01 T01980199  RH  100%=      5-min Rain = 0
KCL1 131038Z 31002KT 20/20 A3005 RMK A01 T01990199  RH  100%=      5-min Rain = 0
KCL1 131039Z 31002KT 20/20 A3005 RMK A01 T02000200  RH  100%=      5-min Rain = 0
KCL1 131040Z 33002KT 20/20 A3005 RMK A01 T02000200  RH  100%=      5-min Rain = 0
KCL1 131041Z 35002KT 20/20 A3005 RMK A01 T02000200  RH  100%=      5-min Rain = 0
KCL1 131042Z 35002KT 20/20 A3005 RMK A01 T02000200  RH  100%=      5-min Rain = 0
KCL1 131043Z 34002KT 20/20 A3005 RMK A01 T02000200  RH  100%=      5-min Rain = 0
KCL1 131044Z 34002KT 20/20 A3005 RMK A01 T01990199  RH  100%=      5-min Rain = 0
KCL1 131045Z 34001KT 20/20 A3005 RMK A01 T01990199  RH  100%=      5-min Rain = 0
KCL1 131046Z 34001KT 20/20 A3005 RMK A01 T01990199  RH  100%=      5-min Rain = 0
KCL1 131047Z 34001KT 20/20 A3005 RMK A01 T01990199  RH  100%=      5-min Rain = 0
KCL1 131048Z 33002KT 20/20 A3005 RMK A01 T01990199  RH  100%=      5-min Rain = 0
KCL1 131049Z 32003KT 20/20 A3005 RMK A01 T01990199  RH  100%=      5-min Rain = 0
KCL1 131050Z 32003KT 20/20 A3005 RMK A01 T01990200  RH  100%=      5-min Rain = 0
KCL1 131051Z 32003KT 20/20 A3005 RMK A01 T01990200  RH  100%=      5-min Rain = 0
KCL1 131052Z 32003KT 20/20 A3005 RMK A01 T01990199  RH  100%=      5-min Rain = 0
KCL1 131053Z 31003KT 20/20 A3005 RMK A01 T01980198  RH  100%=      5-min Rain = 0
KCL1 131054Z 31003KT 20/20 A3005 RMK A01 T01980198  RH  100%=      5-min Rain = 0
KCL1 131055Z 31003KT 20/20 A3005 RMK A01 T01980198  RH  100%=      5-min Rain = 0
KCL1 131056Z 31003KT 20/20 A3005 RMK A01 T01980198  RH  100%=      5-min Rain = 0
KCL1 131057Z 31004KT 20/20 A3005 RMK A01 T01980198  RH  100%=      5-min Rain = 0
KCL1 131058Z 32004KT 20/20 A3006 RMK A01 T01970197  RH  100%=      5-min Rain = 0
KCL1 131059Z 33004KT 20/20 A3006 RMK A01 T01970197  RH  100%=      5-min Rain = 0
KCL1 131100Z 33005KT 20/20 A3006 RMK A01 T01960196  RH  100%=      5-min Rain = 0
KCL1 131101Z 33005KT 20/20 A3006 RMK A01 T01960196  RH  100%=      5-min Rain = 0
KCL1 131102Z 33006KT 20/20 A3006 RMK A01 T01950196  RH  100%=      5-min Rain = 0
KCL1 131103Z 34007KT 20/20 A3006 RMK A01 T01950195  RH  100%=      5-min Rain = 0
KCL1 131104Z 34007KT 19/19 A3006 RMK A01 T01930194  RH  100%=      5-min Rain = 0
KCL1 131105Z 33006KT 19/19 A3006 RMK A01 T01930193  RH  100%=      5-min Rain = 0
KCL1 131106Z 34006KT 19/19 A3006 RMK A01 T01930193  RH  100%=      5-min Rain = 0
KCL1 131107Z 34005KT 19/19 A3006 RMK A01 T01930193  RH  100%=      5-min Rain = 0
KCL1 131108Z 36006KT 19/19 A3006 RMK A01 T01920192  RH  100%=      5-min Rain = 0
KCL1 131109Z 35007KT 19/19 A3006 RMK A01 T01920192  RH  100%=      5-min Rain = 0
KCL1 131110Z 36007KT 19/19 A3006 RMK A01 T01910191  RH  100%=      5-min Rain = 0
KCL1 131111Z 36007KT 19/19 A3006 RMK A01 T01910191  RH  100%=      5-min Rain = 0
KCL1 131112Z 36006KT 19/19 A3006 RMK A01 T01900190  RH  100%=      5-min Rain = 0
KCL1 131113Z 01006KT 19/19 A3006 RMK A01 T01900190  RH  100%=      5-min Rain = 0
KCL1 131114Z 00006KT 19/19 A3006 RMK A01 T01900190  RH  100%=      5-min Rain = 0
KCL1 131115Z 00007KT 19/19 A3006 RMK A01 T01890189  RH  100%=      5-min Rain = 0
KCL1 131116Z 35006KT 19/19 A3006 RMK A01 T01890189  RH  100%=      5-min Rain = 0
KCL1 131117Z 35005KT 19/19 A3006 RMK A01 T01890189  RH  100%=      5-min Rain = 0
KCL1 131118Z 34005KT 19/19 A3006 RMK A01 T01890189  RH  100%=      5-min Rain = 0
KCL1 131119Z 34006KT 19/19 A3006 RMK A01 T01890189  RH  100%=      5-min Rain = 0
KCL1 131120Z 34006KT 19/19 A3006 RMK A01 T01890189  RH  100%=      5-min Rain = 0
KCL1 131121Z 34005KT 19/19 A3006 RMK A01 T01890189  RH  100%=      5-min Rain = 0
KCL1 131122Z 34006KT 19/19 A3006 RMK A01 T01890189  RH  100%=      5-min Rain = 0
KCL1 131123Z 34005KT 19/19 A3006 RMK A01 T01890189  RH  100%=      5-min Rain = 0
KCL1 131124Z 34005KT 19/19 A3006 RMK A01 T01890189  RH  100%=      5-min Rain = 0
KCL1 131125Z 34004KT 19/19 A3006 RMK A01 T01890189  RH  100%=      5-min Rain = 0
KCL1 131126Z 34004KT 19/19 A3006 RMK A01 T01890189  RH  100%=      5-min Rain = 0
KCL1 131127Z 33006KT 19/19 A3006 RMK A01 T01890189  RH  100%=      5-min Rain = 0
KCL1 131128Z 34006KT 19/19 A3006 RMK A01 T01890189  RH  100%=      5-min Rain = 0
KCL1 131129Z 34007KT 19/19 A3006 RMK A01 T01890189  RH  100%=      5-min Rain = 0
KCL1 131130Z 34007KT 19/19 A3006 RMK A01 T01890189  RH  100%=      5-min Rain = 0
KCL1 131131Z 33007KT 19/19 A3006 RMK A01 T01890189  RH  100%=      5-min Rain = 0
KCL1 131132Z 33007KT 19/19 A3006 RMK A01 T01890189  RH  100%=      5-min Rain = 0
KCL1 131133Z 33006KT 19/19 A3006 RMK A01 T01890189  RH  100%=      5-min Rain = 0
KCL1 131134Z 34006KT 19/19 A3006 RMK A01 T01890190  RH  100%=      5-min Rain = 0
KCL1 131135Z 34006KT 19/19 A3006 RMK A01 T01900190  RH  100%=      5-min Rain = 0
KCL1 131136Z 34006KT 19/19 A3006 RMK A01 T01900190  RH  100%=      5-min Rain = 0
KCL1 131137Z 34006KT 19/19 A3006 RMK A01 T01900190  RH  100%=      5-min Rain = 0
KCL1 131138Z 33007KT 19/19 A3006 RMK A01 T01910191  RH  100%=      5-min Rain = 0
KCL1 131139Z 34007KT 19/19 A3006 RMK A01 T01910191  RH  100%=      5-min Rain = 0
KCL1 131140Z 34006KT 19/19 A3006 RMK A01 T01910191  RH  100%=      5-min Rain = 0
KCL1 131141Z 33006KT 19/19 A3006 RMK A01 T01910191  RH  100%=      5-min Rain = 0
KCL1 131142Z 33005KT 19/19 A3006 RMK A01 T01910191  RH  100%=      5-min Rain = 0
KCL1 131143Z 33005KT 19/19 A3007 RMK A01 T01910191  RH  100%=      5-min Rain = 0
KCL1 131144Z 33005KT 19/19 A3007 RMK A01 T01910191  RH  100%=      5-min Rain = 0
KCL1 131145Z 33006KT 19/19 A3007 RMK A01 T01910191  RH  100%=      5-min Rain = 0
KCL1 131146Z 33005KT 19/19 A3007 RMK A01 T01910191  RH  100%=      5-min Rain = 0
KCL1 131147Z 33006KT 19/19 A3007 RMK A01 T01910191  RH  100%=      5-min Rain = 0
KCL1 131148Z 33006KT 19/19 A3007 RMK A01 T01910191  RH  100%=      5-min Rain = 0
KCL1 131149Z 33006KT 19/19 A3007 RMK A01 T01910191  RH  100%=      5-min Rain = 0
KCL1 131150Z 34007KT 19/19 A3007 RMK A01 T01910191  RH  100%=      5-min Rain = 0
KCL1 131151Z 34007KT 19/19 A3007 RMK A01 T01910191  RH  100%=      5-min Rain = 0
KCL1 131152Z 33007KT 19/19 A3007 RMK A01 T01910191  RH  100%=      5-min Rain = 0
KCL1 131153Z 34007KT 19/19 A3007 RMK A01 T01910191  RH  100%=      5-min Rain = 0
KCL1 131154Z 33006KT 19/19 A3007 RMK A01 T01910191  RH  100%=      5-min Rain = 0
KCL1 131155Z 34006KT 19/19 A3007 RMK A01 T01910191  RH  100%=      5-min Rain = 0
KCL1 131156Z 34006KT 19/19 A3007 RMK A01 T01910191  RH  100%=      5-min Rain = 0
KCL1 131157Z 34006KT 19/19 A3007 RMK A01 T01910191  RH  100%=      5-min Rain = 0
KCL1 131158Z 34006KT 19/19 A3007 RMK A01 T01910191  RH  100%=      5-min Rain = 0
KCL1 131159Z 33006KT 19/19 A3007 RMK A01 T01910191  RH  100%=      5-min Rain = 0
KCL1 131200Z 33006KT 19/19 A3007 RMK A01 T01900191  RH  100%=      5-min Rain = 0
KCL1 131201Z 33006KT 19/19 A3007 RMK A01 T01910191  RH  100%=      5-min Rain = 0
KCL1 131202Z 33005KT 19/19 A3007 RMK A01 T01910191  RH  100%=      5-min Rain = 0
KCL1 131203Z 33005KT 19/19 A3007 RMK A01 T01910191  RH  100%=      5-min Rain = 0
KCL1 131204Z 34006KT 19/19 A3007 RMK A01 T01910191  RH  100%=      5-min Rain = 0
KCL1 131205Z 34006KT 19/19 A3007 RMK A01 T01910191  RH  100%=      5-min Rain = 0
KCL1 131206Z 33006KT 19/19 A3007 RMK A01 T01910191  RH  100%=      5-min Rain = 0
KCL1 131207Z 33006KT 19/19 A3007 RMK A01 T01910191  RH  100%=      5-min Rain = 0
KCL1 131208Z 33007KT 19/19 A3007 RMK A01 T01910191  RH  100%=      5-min Rain = 0
KCL1 131209Z 33007KT 19/19 A3007 RMK A01 T01910191  RH  100%=      5-min Rain = 0
KCL1 131210Z 33006KT 19/19 A3008 RMK A01 T01910191  RH  100%=      5-min Rain = 0
KCL1 131211Z 33007KT 19/19 A3008 RMK A01 T01910191  RH  100%=      5-min Rain = 0
KCL1 131212Z 33007KT 19/19 A3008 RMK A01 T01910191  RH  100%=      5-min Rain = 0
KCL1 131213Z 34006KT 19/19 A3008 RMK A01 T01910191  RH  100%=      5-min Rain = 0
KCL1 131214Z 34006KT 19/19 A3008 RMK A01 T01910191  RH  100%=      5-min Rain = 0
KCL1 131215Z 34005KT 19/19 A3008 RMK A01 T01900190  RH  100%=      5-min Rain = 0
KCL1 131216Z 33007KT 19/19 A3008 RMK A01 T01900190  RH  100%=      5-min Rain = 0
KCL1 131217Z 33006KT 19/19 A3008 RMK A01 T01910191  RH  100%=      5-min Rain = 0
KCL1 131218Z 34006KT 19/19 A3008 RMK A01 T01900191  RH  100%=      5-min Rain = 0
KCL1 131219Z 34007KT 19/19 A3008 RMK A01 T01900190  RH  100%=      5-min Rain = 0
KCL1 131220Z 34007KT 19/19 A3008 RMK A01 T01900190  RH  100%=      5-min Rain = 0
KCL1 131221Z 34007KT 19/19 A3008 RMK A01 T01900190  RH  100%=      5-min Rain = 0
KCL1 131222Z 34008KT 19/19 A3008 RMK A01 T01910191  RH  100%=      5-min Rain = 0
KCL1 131223Z 33007KT 19/19 A3008 RMK A01 T01910191  RH  100%=      5-min Rain = 0
KCL1 131224Z 33007KT 19/19 A3008 RMK A01 T01910191  RH  100%=      5-min Rain = 0
KCL1 131225Z 33007KT 19/19 A3008 RMK A01 T01910191  RH  100%=      5-min Rain = 0
KCL1 131226Z 33007KT 19/19 A3008 RMK A01 T01910191  RH  100%=      5-min Rain = 0
KCL1 131227Z 33008KT 19/19 A3009 RMK A01 T01910191  RH  100%=      5-min Rain = 0
KCL1 131228Z 33008KT 19/19 A3009 RMK A01 T01910191  RH  100%=      5-min Rain = 0
KCL1 131229Z 33008KT 19/19 A3009 RMK A01 T01910191  RH  100%=      5-min Rain = 0
KCL1 131230Z 33008KT 19/19 A3009 RMK A01 T01910191  RH  100%=      5-min Rain = 0
KCL1 131231Z 33007KT 19/19 A3009 RMK A01 T01920192  RH  100%=      5-min Rain = 0
KCL1 131232Z 33007KT 19/19 A3009 RMK A01 T01920192  RH  100%=      5-min Rain = 0
KCL1 131233Z 33008KT 19/19 A3009 RMK A01 T01920192  RH  100%=      5-min Rain = 0
KCL1 131234Z 34008KT 19/19 A3009 RMK A01 T01920193  RH  100%=      5-min Rain = 0
KCL1 131235Z 33007KT 19/19 A3009 RMK A01 T01930193  RH  100%=      5-min Rain = 0
KCL1 131236Z 33007KT 19/19 A3009 RMK A01 T01930193  RH  100%=      5-min Rain = 0
KCL1 131237Z 34007KT 19/19 A3009 RMK A01 T01930193  RH  100%=      5-min Rain = 0
KCL1 131238Z 34008KT 19/19 A3009 RMK A01 T01930193  RH  100%=      5-min Rain = 0
KCL1 131239Z 34007KT 19/19 A3009 RMK A01 T01930193  RH  100%=      5-min Rain = 0
KCL1 131240Z 34006KT 19/19 A3009 RMK A01 T01930193  RH  100%=      5-min Rain = 0
KCL1 131241Z 34008KT 19/19 A3009 RMK A01 T01940194  RH  100%=      5-min Rain = 0
KCL1 131242Z 34007KT 19/19 A3009 RMK A01 T01940194  RH  100%=      5-min Rain = 0
KCL1 131243Z 34007KT 19/19 A3009 RMK A01 T01940194  RH  100%=      5-min Rain = 0
KCL1 131244Z 34007KT 20/20 A3009 RMK A01 T01950195  RH  100%=      5-min Rain = 0
KCL1 131245Z 34006KT 20/20 A3009 RMK A01 T01950195  RH  100%=      5-min Rain = 0
KCL1 131246Z 34007KT 20/20 A3009 RMK A01 T01950195  RH  100%=      5-min Rain = 0
KCL1 131247Z 33007KT 20/20 A3009 RMK A01 T01950195  RH  100%=      5-min Rain = 0
KCL1 131248Z 33008KT 20/20 A3009 RMK A01 T01960196  RH  100%=      5-min Rain = 0
KCL1 131249Z 33009KT 20/20 A3009 RMK A01 T01960196  RH  100%=      5-min Rain = 0
KCL1 131250Z 34008KT 20/20 A3009 RMK A01 T01960197  RH  100%=      5-min Rain = 0
KCL1 131251Z 33008KT 20/20 A3009 RMK A01 T01970197  RH  100%=      5-min Rain = 0
KCL1 131252Z 34007KT 20/20 A3009 RMK A01 T01970197  RH  100%=      5-min Rain = 0
KCL1 131253Z 33007KT 20/20 A3009 RMK A01 T01970198  RH  100%=      5-min Rain = 0
KCL1 131254Z 34007KT 20/20 A3009 RMK A01 T01970198  RH  100%=      5-min Rain = 0
KCL1 131255Z 34007KT 20/20 A3009 RMK A01 T01980198  RH  100%=      5-min Rain = 0
KCL1 131256Z 33007KT 20/20 A3009 RMK A01 T01980198  RH  100%=      5-min Rain = 0
KCL1 131257Z 33008KT 20/20 A3009 RMK A01 T01990199  RH  100%=      5-min Rain = 0
KCL1 131258Z 34007KT 20/20 A3009 RMK A01 T01990199  RH  100%=      5-min Rain = 0
KCL1 131259Z 34007KT 20/20 A3009 RMK A01 T01990199  RH  100%=      5-min Rain = 0
KCL1 131300Z 34007KT 20/20 A3009 RMK A01 T01990200  RH  100%=      5-min Rain = 0
KCL1 131301Z 34007KT 20/20 A301 RMK A01 T02000200  RH  100%=      5-min Rain = 0
KCL1 131302Z 33008KT 20/20 A301 RMK A01 T02000200  RH  100%=      5-min Rain = 0
KCL1 131303Z 33008KT 20/20 A301 RMK A01 T02010201  RH  100%=      5-min Rain = 0
KCL1 131304Z 33006KT 20/20 A301 RMK A01 T02010201  RH  100%=      5-min Rain = 0
KCL1 131305Z 34006KT 20/20 A301 RMK A01 T02010201  RH  100%=      5-min Rain = 0
KCL1 131306Z 34006KT 20/20 A301 RMK A01 T02020202  RH  100%=      5-min Rain = 0
KCL1 131307Z 34007KT 20/20 A301 RMK A01 T02020202  RH  100%=      5-min Rain = 0
KCL1 131308Z 34006KT 20/20 A301 RMK A01 T02030203  RH  100%=      5-min Rain = 0
KCL1 131309Z 34007KT 20/20 A301 RMK A01 T02030203  RH  100%=      5-min Rain = 0
KCL1 131310Z 34007KT 20/20 A301 RMK A01 T02030204  RH  100%=      5-min Rain = 0
KCL1 131311Z 34007KT 20/20 A301 RMK A01 T02040204  RH  100%=      5-min Rain = 0
KCL1 131312Z 33008KT 20/20 A301 RMK A01 T02040204  RH  100%=      5-min Rain = 0
KCL1 131313Z 34008KT 20/20 A301 RMK A01 T02040204  RH  100%=      5-min Rain = 0
KCL1 131314Z 34006KT 20/21 A301 RMK A01 T02040205  RH  100%=      5-min Rain = 0
KCL1 131315Z 34006KT 20/20 A301 RMK A01 T02040204  RH  100%=      5-min Rain = 0
KCL1 131316Z 34007KT 21/21 A301 RMK A01 T02050205  RH  100%=      5-min Rain = 0
KCL1 131317Z 34007KT 21/21 A301 RMK A01 T02050205  RH  100%=      5-min Rain = 0
KCL1 131318Z 34007KT 21/21 A301 RMK A01 T02050206  RH  100%=      5-min Rain = 0
KCL1 131319Z 33008KT 21/21 A301 RMK A01 T02050206  RH  100%=      5-min Rain = 0
KCL1 131320Z 34008KT 21/21 A301 RMK A01 T02060206  RH  100%=      5-min Rain = 0
KCL1 131321Z 34009KT 21/21 A301 RMK A01 T02060206  RH  100%=      5-min Rain = 0
KCL1 131322Z 34007KT 21/21 A301 RMK A01 T02060206  RH  100%=      5-min Rain = 0
KCL1 131323Z 34005KT 21/21 A301 RMK A01 T02070207  RH  100%=      5-min Rain = 0
KCL1 131324Z 34006KT 21/21 A301 RMK A01 T02070207  RH  100%=      5-min Rain = 0
KCL1 131325Z 34007KT 21/21 A301 RMK A01 T02080209  RH  100%=      5-min Rain = 0
KCL1 131326Z 35006KT 21/21 A301 RMK A01 T02090209  RH  100%=      5-min Rain = 0
KCL1 131327Z 34006KT 21/21 A301 RMK A01 T02090210  RH  100%=      5-min Rain = 0
KCL1 131328Z 34006KT 21/21 A301 RMK A01 T02100210  RH  100%=      5-min Rain = 0
KCL1 131329Z 35006KT 21/21 A301 RMK A01 T02100210  RH  100%=      5-min Rain = 0
KCL1 131330Z 35008KT 21/21 A301 RMK A01 T02110211  RH  100%=      5-min Rain = 0
KCL1 131331Z 35008KT 21/21 A301 RMK A01 T02110209  RH  099%=      5-min Rain = 0
KCL1 131332Z 34008KT 21/21 A301 RMK A01 T02110209  RH  099%=      5-min Rain = 0
KCL1 131333Z 35008KT 21/21 A301 RMK A01 T02110209  RH  099%=      5-min Rain = 0
KCL1 131334Z 34008KT 21/21 A301 RMK A01 T02110210  RH  099%=      5-min Rain = 0
KCL1 131335Z 35008KT 21/21 A301 RMK A01 T02110208  RH  099%=      5-min Rain = 0
KCL1 131336Z 34007KT 21/21 A301 RMK A01 T02110210  RH  099%=      5-min Rain = 0
KCL1 131337Z 34007KT 21/21 A301 RMK A01 T02110210  RH  099%=      5-min Rain = 0
KCL1 131338Z 34007KT 21/21 A301 RMK A01 T02120212  RH  100%=      5-min Rain = 0
KCL1 131339Z 34007KT 21/21 A301 RMK A01 T02130209  RH  098%=      5-min Rain = 0
KCL1 131340Z 34007KT 21/21 A301 RMK A01 T02130211  RH  098%=      5-min Rain = 0
KCL1 131341Z 35006KT 21/21 A301 RMK A01 T02130209  RH  097%=      5-min Rain = 0
KCL1 131342Z 35009KT 21/21 A301 RMK A01 T02140210  RH  097%=      5-min Rain = 0
KCL1 131343Z 35009KT 21/21 A301 RMK A01 T02140208  RH  097%=      5-min Rain = 0
KCL1 131344Z 36009KT 21/21 A301 RMK A01 T02140208  RH  096%=      5-min Rain = 0
KCL1 131345Z 34006KT 21/21 A301 RMK A01 T02140209  RH  097%=      5-min Rain = 0
KCL1 131346Z 35008KT 21/21 A301 RMK A01 T02140209  RH  097%=      5-min Rain = 0
KCL1 131347Z 35008KT 22/21 A301 RMK A01 T02150209  RH  096%=      5-min Rain = 0
KCL1 131348Z 35007KT 22/21 A301 RMK A01 T02150210  RH  097%=      5-min Rain = 0
KCL1 131349Z 35009KT 22/21 A301 RMK A01 T02160208  RH  095%=      5-min Rain = 0
KCL1 131350Z 35008KT 22/21 A301 RMK A01 T02160208  RH  095%=      5-min Rain = 0
KCL1 131351Z 35007KT 22/21 A301 RMK A01 T02170210  RH  096%=      5-min Rain = 0
KCL1 131352Z 34008KT 22/21 A3011 RMK A01 T02180210  RH  096%=      5-min Rain = 0
KCL1 131353Z 34010KT 22/21 A3011 RMK A01 T02190208  RH  094%=      5-min Rain = 0
KCL1 131354Z 34009KT 22/21 A3011 RMK A01 T02190206  RH  092%=      5-min Rain = 0
KCL1 131355Z 34010KT 22/21 A3011 RMK A01 T02190206  RH  093%=      5-min Rain = 0
KCL1 131356Z 34010KT 22/21 A3011 RMK A01 T02190208  RH  094%=      5-min Rain = 0
KCL1 131357Z 34010KT 22/21 A3011 RMK A01 T02190206  RH  092%=      5-min Rain = 0
KCL1 131358Z 34009KT 22/21 A3011 RMK A01 T02190206  RH  092%=      5-min Rain = 0
KCL1 131359Z 34009KT 22/21 A3011 RMK A01 T02200205  RH  092%=      5-min Rain = 0
KCL1 131400Z 34010KT 22/21 A3011 RMK A01 T02200205  RH  091%=      5-min Rain = 0
KCL1 131401Z 34009KT 22/21 A3011 RMK A01 T02200205  RH  091%=      5-min Rain = 0
KCL1 131402Z 33010KT 22/21 A3011 RMK A01 T02210206  RH  091%=      5-min Rain = 0
KCL1 131403Z 33010KT 22/21 A3011 RMK A01 T02220207  RH  091%=      5-min Rain = 0
KCL1 131404Z 34007KT 22/21 A3011 RMK A01 T02220207  RH  091%=      5-min Rain = 0
KCL1 131405Z 34008KT 22/21 A3011 RMK A01 T02240209  RH  091%=      5-min Rain = 0
KCL1 131406Z 34010KT 23/21 A3011 RMK A01 T02250206  RH  089%=      5-min Rain = 0
KCL1 131407Z 34011KT 23/20 A3011 RMK A01 T02250204  RH  088%=      5-min Rain = 0
KCL1 131408Z 34011KT 23/20 A3011 RMK A01 T02250204  RH  088%=      5-min Rain = 0
KCL1 131409Z 34010KT 22/21 A3012 RMK A01 T02240205  RH  089%=      5-min Rain = 0
KCL1 131410Z 33009KT 22/21 A3012 RMK A01 T02240206  RH  089%=      5-min Rain = 0
KCL1 131411Z 34008KT 23/21 A3012 RMK A01 T02250205  RH  089%=      5-min Rain = 0
KCL1 131412Z 35008KT 23/21 A3012 RMK A01 T02260207  RH  089%=      5-min Rain = 0
KCL1 131413Z 36010KT 23/21 A3012 RMK A01 T02260205  RH  088%=      5-min Rain = 0
KCL1 131414Z 35008KT 23/21 A3012 RMK A01 T02260205  RH  088%=      5-min Rain = 0
KCL1 131415Z 35008KT 23/21 A3012 RMK A01 T02270207  RH  089%=      5-min Rain = 0
KCL1 131416Z 34007KT 23/21 A3012 RMK A01 T02280206  RH  087%=      5-min Rain = 0
KCL1 131417Z 34007KT 23/21 A3012 RMK A01 T02290205  RH  086%=      5-min Rain = 0
KCL1 131418Z 34008KT 23/21 A3012 RMK A01 T02300206  RH  086%=      5-min Rain = 0
KCL1 131419Z 35008KT 23/21 A3012 RMK A01 T02310205  RH  085%=      5-min Rain = 0
KCL1 131420Z 35009KT 23/20 A3012 RMK A01 T02310203  RH  084%=      5-min Rain = 0
KCL1 131421Z 35009KT 23/20 A3012 RMK A01 T02310202  RH  084%=      5-min Rain = 0
KCL1 131422Z 35009KT 23/20 A3012 RMK A01 T02310203  RH  084%=      5-min Rain = 0
KCL1 131423Z 34009KT 23/20 A3012 RMK A01 T02310203  RH  084%=      5-min Rain = 0
KCL1 131424Z 34011KT 23/20 A3012 RMK A01 T02310201  RH  083%=      5-min Rain = 0
KCL1 131425Z 33010KT 23/20 A3012 RMK A01 T02310202  RH  084%=      5-min Rain = 0
KCL1 131426Z 34012KT 23/20 A3012 RMK A01 T02300201  RH  084%=      5-min Rain = 0
KCL1 131427Z 33010KT 23/20 A3012 RMK A01 T02300201  RH  084%=      5-min Rain = 0
KCL1 131428Z 33011KT 23/20 A3012 RMK A01 T02300200  RH  083%=      5-min Rain = 0
KCL1 131429Z 33008KT 23/20 A3012 RMK A01 T02300201  RH  084%=      5-min Rain = 0
KCL1 131430Z 34009KT 23/20 A3012 RMK A01 T02300201  RH  084%=      5-min Rain = 0
KCL1 131431Z 33009KT 23/20 A3012 RMK A01 T02310201  RH  084%=      5-min Rain = 0
KCL1 131432Z 33008KT 23/20 A3012 RMK A01 T02310202  RH  084%=      5-min Rain = 0
KCL1 131433Z 33009KT 23/20 A3012 RMK A01 T02320200  RH  082%=      5-min Rain = 0
KCL1 131434Z 33008KT 23/20 A3012 RMK A01 T02330201  RH  082%=      5-min Rain = 0
KCL1 131435Z 34009KT 23/20 A3013 RMK A01 T02320202  RH  083%=      5-min Rain = 0
KCL1 131436Z 34008KT 23/20 A3013 RMK A01 T02330201  RH  082%=      5-min Rain = 0
KCL1 131437Z 33007KT 23/20 A3013 RMK A01 T02340202  RH  082%=      5-min Rain = 0
KCL1 131438Z 34008KT 24/20 A3013 RMK A01 T02360202  RH  082%=      5-min Rain = 0
KCL1 131439Z 34007KT 24/20 A3013 RMK A01 T02370204  RH  082%=      5-min Rain = 0
KCL1 131440Z 33008KT 24/20 A3013 RMK A01 T02380202  RH  080%=      5-min Rain = 0
KCL1 131441Z 33009KT 24/20 A3013 RMK A01 T02380201  RH  080%=      5-min Rain = 0
KCL1 131442Z 34008KT 24/20 A3013 RMK A01 T02370202  RH  080%=      5-min Rain = 0
KCL1 131443Z 34009KT 24/20 A3013 RMK A01 T02370200  RH  080%=      5-min Rain = 0
KCL1 131444Z 35007KT 24/20 A3013 RMK A01 T02370201  RH  081%=      5-min Rain = 0
KCL1 131445Z 35008KT 24/20 A3013 RMK A01 T02370202  RH  080%=      5-min Rain = 0
KCL1 131446Z 34010KT 24/20 A3013 RMK A01 T02380197  RH  078%=      5-min Rain = 0
KCL1 131447Z 34008KT 24/20 A3013 RMK A01 T02380199  RH  079%=      5-min Rain = 0
KCL1 131448Z 34006KT 24/20 A3013 RMK A01 T02380201  RH  080%=      5-min Rain = 0
KCL1 131449Z 33008KT 24/20 A3013 RMK A01 T02390200  RH  079%=      5-min Rain = 0
KCL1 131450Z 34008KT 24/20 A3013 RMK A01 T02400199  RH  078%=      5-min Rain = 0
KCL1 131451Z 34008KT 24/20 A3013 RMK A01 T02390199  RH  078%=      5-min Rain = 0
KCL1 131452Z 34008KT 24/20 A3013 RMK A01 T02410201  RH  079%=      5-min Rain = 0
KCL1 131453Z 33007KT 24/20 A3013 RMK A01 T02410197  RH  076%=      5-min Rain = 0
KCL1 131454Z 33008KT 24/20 A3013 RMK A01 T02420198  RH  077%=      5-min Rain = 0
KCL1 131455Z 34009KT 24/20 A3013 RMK A01 T02420199  RH  077%=      5-min Rain = 0
KCL1 131456Z 33007KT 24/20 A3013 RMK A01 T02420199  RH  077%=      5-min Rain = 0
KCL1 131457Z 33009KT 24/20 A3013 RMK A01 T02420199  RH  077%=      5-min Rain = 0
KCL1 131458Z 33008KT 24/20 A3013 RMK A01 T02420197  RH  076%=      5-min Rain = 0
KCL1 131459Z 34008KT 24/20 A3013 RMK A01 T02420198  RH  076%=      5-min Rain = 0
KCL1 131500Z 35008KT 24/20 A3013 RMK A01 T02420200  RH  077%=      5-min Rain = 0
KCL1 131501Z 33009KT 24/20 A3013 RMK A01 T02430197  RH  076%=      5-min Rain = 0
KCL1 131502Z 33007KT 24/20 A3013 RMK A01 T02430198  RH  076%=      5-min Rain = 0
KCL1 131503Z 35007KT 25/20 A3013 RMK A01 T02450201  RH  076%=      5-min Rain = 0
KCL1 131504Z 00006KT 25/20 A3013 RMK A01 T02460199  RH  075%=      5-min Rain = 0
KCL1 131505Z 35006KT 25/20 A3013 RMK A01 T02460200  RH  075%=      5-min Rain = 0
KCL1 131506Z 35006KT 25/20 A3013 RMK A01 T02480196  RH  073%=      5-min Rain = 0
KCL1 131507Z 35004KT 25/20 A3013 RMK A01 T02470198  RH  074%=      5-min Rain = 0
KCL1 131508Z 35008KT 25/20 A3013 RMK A01 T02480197  RH  073%=      5-min Rain = 0
KCL1 131509Z 34006KT 25/20 A3013 RMK A01 T02490196  RH  072%=      5-min Rain = 0
KCL1 131510Z 35006KT 25/19 A3013 RMK A01 T02480194  RH  072%=      5-min Rain = 0
KCL1 131511Z 33008KT 25/20 A3013 RMK A01 T02480197  RH  073%=      5-min Rain = 0
KCL1 131512Z 33008KT 25/20 A3013 RMK A01 T02470198  RH  074%=      5-min Rain = 0
KCL1 131513Z 33005KT 25/20 A3013 RMK A01 T02480200  RH  075%=      5-min Rain = 0
KCL1 131514Z 36005KT 25/20 A3013 RMK A01 T02480202  RH  075%=      5-min Rain = 0
KCL1 131515Z 35006KT 25/20 A3013 RMK A01 T02500200  RH  074%=      5-min Rain = 0
KCL1 131516Z 01005KT 25/20 A3013 RMK A01 T02520199  RH  072%=      5-min Rain = 0
KCL1 131517Z 01005KT 25/20 A3013 RMK A01 T02530200  RH  073%=      5-min Rain = 0
KCL1 131518Z 01007KT 25/20 A3013 RMK A01 T02540195  RH  070%=      5-min Rain = 0
KCL1 131519Z 00005KT 25/19 A3013 RMK A01 T02520194  RH  070%=      5-min Rain = 0
KCL1 131520Z 36003KT 25/20 A3013 RMK A01 T02510195  RH  071%=      5-min Rain = 0
KCL1 131521Z 34004KT 25/20 A3013 RMK A01 T02510195  RH  071%=      5-min Rain = 0
KCL1 131522Z 00006KT 25/20 A3013 RMK A01 T02530196  RH  071%=      5-min Rain = 0
KCL1 131523Z 01005KT 25/20 A3013 RMK A01 T02540195  RH  070%=      5-min Rain = 0
KCL1 131524Z 01005KT 25/19 A3013 RMK A01 T02540192  RH  069%=      5-min Rain = 0
KCL1 131525Z 00005KT 25/19 A3013 RMK A01 T02530194  RH  070%=      5-min Rain = 0
KCL1 131526Z 01006KT 25/19 A3013 RMK A01 T02530193  RH  069%=      5-min Rain = 0
KCL1 131527Z 00006KT 25/19 A3013 RMK A01 T02530192  RH  069%=      5-min Rain = 0
KCL1 131528Z 35005KT 25/19 A3013 RMK A01 T02530189  RH  068%=      5-min Rain = 0
KCL1 131529Z 36004KT 25/19 A3013 RMK A01 T02520191  RH  069%=      5-min Rain = 0
KCL1 131530Z 34003KT 25/19 A3013 RMK A01 T02520192  RH  069%=      5-min Rain = 0
KCL1 131531Z 34002KT 25/19 A3013 RMK A01 T02540190  RH  068%=      5-min Rain = 0
KCL1 131532Z 35002KT 25/19 A3013 RMK A01 T02540192  RH  068%=      5-min Rain = 0
KCL1 131533Z 01003KT 26/19 A3013 RMK A01 T02560191  RH  067%=      5-min Rain = 0
KCL1 131534Z 34004KT 26/19 A3013 RMK A01 T02590194  RH  068%=      5-min Rain = 0
KCL1 131535Z 35005KT 26/19 A3013 RMK A01 T02600192  RH  066%=      5-min Rain = 0
KCL1 131536Z 34004KT 26/19 A3013 RMK A01 T02590191  RH  066%=      5-min Rain = 0
KCL1 131537Z 36004KT 26/19 A3013 RMK A01 T02570191  RH  067%=      5-min Rain = 0
KCL1 131538Z 36007KT 26/19 A3013 RMK A01 T02560192  RH  068%=      5-min Rain = 0
KCL1 131539Z 34006KT 26/19 A3013 RMK A01 T02570194  RH  068%=      5-min Rain = 0
KCL1 131540Z 01006KT 26/19 A3013 RMK A01 T02590193  RH  067%=      5-min Rain = 0
KCL1 131541Z 35005KT 26/19 A3013 RMK A01 T02580194  RH  068%=      5-min Rain = 0
KCL1 131542Z 36005KT 26/20 A3013 RMK A01 T02590195  RH  068%=      5-min Rain = 0
KCL1 131543Z 00005KT 26/20 A3013 RMK A01 T02600195  RH  067%=      5-min Rain = 0
KCL1 131544Z 02006KT 26/19 A3013 RMK A01 T02600193  RH  066%=      5-min Rain = 0
KCL1 131545Z 01006KT 26/20 A3013 RMK A01 T02610195  RH  067%=      5-min Rain = 0
KCL1 131546Z 01006KT 26/19 A3014 RMK A01 T02610193  RH  066%=      5-min Rain = 0
KCL1 131547Z 01007KT 26/19 A3014 RMK A01 T02610193  RH  066%=      5-min Rain = 0
KCL1 131548Z 03006KT 26/19 A3014 RMK A01 T02600193  RH  066%=      5-min Rain = 0
KCL1 131549Z 03005KT 26/19 A3014 RMK A01 T02600191  RH  066%=      5-min Rain = 0
KCL1 131550Z 03004KT 26/19 A3014 RMK A01 T02610191  RH  065%=      5-min Rain = 0
KCL1 131551Z 04002KT 26/19 A3014 RMK A01 T02620190  RH  064%=      5-min Rain = 0
KCL1 131552Z 02003KT 26/19 A3014 RMK A01 T02630190  RH  064%=      5-min Rain = 0
KCL1 131553Z 01005KT 26/19 A3013 RMK A01 T02640193  RH  065%=      5-min Rain = 0
KCL1 131554Z 04006KT 26/19 A3013 RMK A01 T02640193  RH  065%=      5-min Rain = 0
KCL1 131555Z 03006KT 26/19 A3013 RMK A01 T02640190  RH  064%=      5-min Rain = 0
KCL1 131556Z 03005KT 26/19 A3013 RMK A01 T02640190  RH  064%=      5-min Rain = 0
KCL1 131557Z 02007KT 26/20 A3013 RMK A01 T02630196  RH  066%=      5-min Rain = 0
KCL1 131558Z 03006KT 27/20 A3013 RMK A01 T02660198  RH  066%=      5-min Rain = 0
KCL1 131559Z 02005KT 27/20 A3014 RMK A01 T02690200  RH  066%=      5-min Rain = 0
KCL1 131600Z 36004KT 27/19 A3014 RMK A01 T02700194  RH  063%=      5-min Rain = 0
KCL1 131601Z 36004KT 27/19 A3014 RMK A01 T02680194  RH  064%=      5-min Rain = 0
KCL1 131602Z 02006KT 27/19 A3014 RMK A01 T02670193  RH  064%=      5-min Rain = 0
KCL1 131603Z 02005KT 27/19 A3014 RMK A01 T02650191  RH  064%=      5-min Rain = 0
KCL1 131604Z 06004KT 27/19 A3014 RMK A01 T02650194  RH  065%=      5-min Rain = 0
KCL1 131605Z 04004KT 27/19 A3014 RMK A01 T02670190  RH  063%=      5-min Rain = 0
KCL1 131606Z 04004KT 27/19 A3014 RMK A01 T02680191  RH  063%=      5-min Rain = 0
KCL1 131607Z 02004KT 27/19 A3014 RMK A01 T02680189  RH  062%=      5-min Rain = 0
KCL1 131608Z 03004KT 27/19 A3014 RMK A01 T02680187  RH  061%=      5-min Rain = 0
KCL1 131609Z 02003KT 27/19 A3014 RMK A01 T02670192  RH  063%=      5-min Rain = 0
KCL1 131610Z 04003KT 27/19 A3014 RMK A01 T02690193  RH  063%=      5-min Rain = 0
KCL1 131611Z 04002KT 27/19 A3014 RMK A01 T02710191  RH  062%=      5-min Rain = 0
KCL1 131612Z 02004KT 27/19 A3014 RMK A01 T02720194  RH  062%=      5-min Rain = 0
KCL1 131613Z 04005KT 27/19 A3014 RMK A01 T02730190  RH  060%=      5-min Rain = 0
KCL1 131614Z 03004KT 27/19 A3014 RMK A01 T02710192  RH  062%=      5-min Rain = 0
KCL1 131615Z 05006KT 27/19 A3014 RMK A01 T02710192  RH  062%=      5-min Rain = 0
KCL1 131616Z 02005KT 27/19 A3014 RMK A01 T02720194  RH  062%=      5-min Rain = 0
KCL1 131617Z 01005KT 27/19 A3014 RMK A01 T02740190  RH  060%=      5-min Rain = 0
KCL1 131618Z 00004KT 27/19 A3014 RMK A01 T02720185  RH  059%=      5-min Rain = 0
KCL1 131619Z 01003KT 27/19 A3014 RMK A01 T02690187  RH  061%=      5-min Rain = 0
KCL1 131620Z 02002KT 27/19 A3014 RMK A01 T02690187  RH  061%=      5-min Rain = 0
KCL1 131621Z 08000KT 27/19 A3014 RMK A01 T02690186  RH  060%=      5-min Rain = 0
KCL1 131622Z 07002KT 27/19 A3014 RMK A01 T02710191  RH  062%=      5-min Rain = 0
KCL1 131623Z 02005KT 27/19 A3014 RMK A01 T02730194  RH  062%=      5-min Rain = 0
KCL1 131624Z 02007KT 27/19 A3014 RMK A01 T02740192  RH  061%=      5-min Rain = 0
KCL1 131625Z 03005KT 28/19 A3014 RMK A01 T02750192  RH  061%=      5-min Rain = 0
KCL1 131626Z 02007KT 28/19 A3014 RMK A01 T02750191  RH  060%=      5-min Rain = 0
KCL1 131627Z 04007KT 28/19 A3014 RMK A01 T02750189  RH  060%=      5-min Rain = 0
KCL1 131628Z 05005KT 27/19 A3014 RMK A01 T02740189  RH  060%=      5-min Rain = 0
KCL1 131629Z 04004KT 27/19 A3014 RMK A01 T02740191  RH  061%=      5-min Rain = 0
KCL1 131630Z 02004KT 27/19 A3014 RMK A01 T02740191  RH  060%=      5-min Rain = 0
KCL1 131631Z 01004KT 28/19 A3014 RMK A01 T02750188  RH  059%=      5-min Rain = 0
KCL1 131632Z 04003KT 27/19 A3014 RMK A01 T02740189  RH  060%=      5-min Rain = 0
KCL1 131633Z 04005KT 27/19 A3014 RMK A01 T02740190  RH  060%=      5-min Rain = 0
KCL1 131634Z 02006KT 27/19 A3014 RMK A01 T02740191  RH  060%=      5-min Rain = 0
KCL1 131635Z 04005KT 28/19 A3014 RMK A01 T02750192  RH  061%=      5-min Rain = 0
KCL1 131636Z 07008KT 28/19 A3014 RMK A01 T02760191  RH  060%=      5-min Rain = 0
KCL1 131637Z 07007KT 28/19 A3014 RMK A01 T02770190  RH  059%=      5-min Rain = 0
KCL1 131638Z 09006KT 28/19 A3014 RMK A01 T02770190  RH  059%=      5-min Rain = 0
KCL1 131639Z 08005KT 28/19 A3014 RMK A01 T02770189  RH  059%=      5-min Rain = 0
KCL1 131640Z 07002KT 28/19 A3014 RMK A01 T02750188  RH  059%=      5-min Rain = 0
KCL1 131641Z 08003KT 28/19 A3014 RMK A01 T02750188  RH  059%=      5-min Rain = 0
KCL1 131642Z 01004KT 28/19 A3014 RMK A01 T02750194  RH  061%=      5-min Rain = 0
KCL1 131643Z 36006KT 28/20 A3014 RMK A01 T02770195  RH  061%=      5-min Rain = 0
KCL1 131644Z 01005KT 28/20 A3014 RMK A01 T02810196  RH  060%=      5-min Rain = 0
KCL1 131645Z 02004KT 28/20 A3014 RMK A01 T02820197  RH  060%=      5-min Rain = 0
KCL1 131646Z 02004KT 28/20 A3014 RMK A01 T02830195  RH  059%=      5-min Rain = 0
KCL1 131647Z 00003KT 28/20 A3014 RMK A01 T02830197  RH  060%=      5-min Rain = 0
KCL1 131648Z 06006KT 28/19 A3014 RMK A01 T02840192  RH  057%=      5-min Rain = 0
KCL1 131649Z 07008KT 28/19 A3014 RMK A01 T02830191  RH  057%=      5-min Rain = 0
KCL1 131650Z 07006KT 28/19 A3014 RMK A01 T02820190  RH  057%=      5-min Rain = 0
KCL1 131651Z 05007KT 28/19 A3014 RMK A01 T02810191  RH  058%=      5-min Rain = 0
KCL1 131652Z 04005KT 28/19 A3014 RMK A01 T02810187  RH  057%=      5-min Rain = 0
KCL1 131653Z 05008G15KT 28/19 A3014 RMK A01 T02790192  RH  059%=      5-min Rain = 0
KCL1 131654Z 09007KT 28/19 A3014 RMK A01 T02820191  RH  058%=      5-min Rain = 0
KCL1 131655Z 07008KT 28/19 A3014 RMK A01 T02840191  RH  057%=      5-min Rain = 0
KCL1 131656Z 06006KT 28/19 A3014 RMK A01 T02830187  RH  056%=      5-min Rain = 0
KCL1 131657Z 09005KT 28/19 A3014 RMK A01 T02810189  RH  057%=      5-min Rain = 0
KCL1 131658Z 10004KT 28/19 A3014 RMK A01 T02800189  RH  058%=      5-min Rain = 0
KCL1 131659Z 08005KT 28/19 A3014 RMK A01 T02800188  RH  057%=      5-min Rain = 0
KCL1 131700Z 06004KT 28/19 A3014 RMK A01 T02800190  RH  058%=      5-min Rain = 0
KCL1 131701Z 04005KT 28/19 A3014 RMK A01 T02820188  RH  057%=      5-min Rain = 0
KCL1 131702Z 05002KT 28/19 A3014 RMK A01 T02810187  RH  057%=      5-min Rain = 0
KCL1 131703Z 03004KT 28/19 A3014 RMK A01 T02800189  RH  058%=      5-min Rain = 0
KCL1 131704Z 02007KT 28/19 A3014 RMK A01 T02810189  RH  057%=      5-min Rain = 0
KCL1 131705Z 01006KT 28/19 A3014 RMK A01 T02810191  RH  058%=      5-min Rain = 0
KCL1 131706Z 03005KT 28/19 A3014 RMK A01 T02820191  RH  058%=      5-min Rain = 0
KCL1 131707Z 05008KT 28/19 A3014 RMK A01 T02830192  RH  058%=      5-min Rain = 0
KCL1 131708Z 07010KT 29/19 A3014 RMK A01 T02850187  RH  055%=      5-min Rain = 0
KCL1 131709Z 07007KT 29/19 A3014 RMK A01 T02850187  RH  055%=      5-min Rain = 0
KCL1 131710Z 06007KT 29/19 A3014 RMK A01 T02850187  RH  055%=      5-min Rain = 0
KCL1 131711Z 06007KT 29/19 A3015 RMK A01 T02850186  RH  055%=      5-min Rain = 0
KCL1 131712Z 08004KT 28/19 A3014 RMK A01 T02840187  RH  056%=      5-min Rain = 0
KCL1 131713Z 06008KT 28/19 A3014 RMK A01 T02840190  RH  057%=      5-min Rain = 0
KCL1 131714Z 05006KT 29/19 A3014 RMK A01 T02870190  RH  056%=      5-min Rain = 0
KCL1 131715Z 04006KT 29/19 A3014 RMK A01 T02870185  RH  054%=      5-min Rain = 0
KCL1 131716Z 03007KT 28/19 A3014 RMK A01 T02840187  RH  056%=      5-min Rain = 0
KCL1 131717Z 03005KT 28/19 A3014 RMK A01 T02840186  RH  055%=      5-min Rain = 0
KCL1 131718Z 02005KT 28/19 A3014 RMK A01 T02840187  RH  056%=      5-min Rain = 0
KCL1 131719Z 00003KT 28/19 A3014 RMK A01 T02840186  RH  055%=      5-min Rain = 0
KCL1 131720Z 02005KT 28/19 A3014 RMK A01 T02840188  RH  056%=      5-min Rain = 0
KCL1 131721Z 07006KT 29/19 A3014 RMK A01 T02850189  RH  056%=      5-min Rain = 0
KCL1 131722Z 05006KT 29/19 A3014 RMK A01 T02860189  RH  056%=      5-min Rain = 0
KCL1 131723Z 05007KT 29/19 A3014 RMK A01 T02860187  RH  055%=      5-min Rain = 0
KCL1 131724Z 05006KT 29/19 A3014 RMK A01 T02860186  RH  055%=      5-min Rain = 0
KCL1 131725Z 04003KT 29/19 A3014 RMK A01 T02850187  RH  055%=      5-min Rain = 0
KCL1 131726Z 04001KT 28/19 A3014 RMK A01 T02840190  RH  057%=      5-min Rain = 0
KCL1 131727Z 09003KT 29/19 A3014 RMK A01 T02860189  RH  056%=      5-min Rain = 0
KCL1 131728Z 07004KT 29/19 A3014 RMK A01 T02870189  RH  056%=      5-min Rain = 0
KCL1 131729Z 07009KT 29/19 A3014 RMK A01 T02890187  RH  054%=      5-min Rain = 0
KCL1 131730Z 07009KT 29/18 A3014 RMK A01 T02900184  RH  053%=      5-min Rain = 0
KCL1 131731Z 06008KT 29/19 A3014 RMK A01 T02880185  RH  054%=      5-min Rain = 0
KCL1 131732Z 08007KT 29/18 A3014 RMK A01 T02880184  RH  053%=      5-min Rain = 0
KCL1 131733Z 08007KT 29/18 A3014 RMK A01 T02880184  RH  053%=      5-min Rain = 0
KCL1 131734Z 09004KT 29/18 A3014 RMK A01 T02870183  RH  054%=      5-min Rain = 0
KCL1 131735Z 10008KT 29/19 A3014 RMK A01 T02870189  RH  056%=      5-min Rain = 0
KCL1 131736Z 11007KT 29/19 A3014 RMK A01 T02900187  RH  054%=      5-min Rain = 0
KCL1 131737Z 12006KT 29/19 A3014 RMK A01 T02900188  RH  054%=      5-min Rain = 0
KCL1 131738Z 10006KT 29/19 A3014 RMK A01 T02920187  RH  053%=      5-min Rain = 0
KCL1 131739Z 05009KT 29/19 A3014 RMK A01 T02920188  RH  053%=      5-min Rain = 0
KCL1 131740Z 05008KT 29/19 A3014 RMK A01 T02910185  RH  053%=      5-min Rain = 0
KCL1 131741Z 04008KT 29/19 A3014 RMK A01 T02890186  RH  054%=      5-min Rain = 0
KCL1 131742Z 03010KT 29/19 A3014 RMK A01 T02890188  RH  054%=      5-min Rain = 0
KCL1 131743Z 03008KT 29/19 A3014 RMK A01 T02900185  RH  053%=      5-min Rain = 0
KCL1 131744Z 03005KT 29/18 A3014 RMK A01 T02880184  RH  054%=      5-min Rain = 0
KCL1 131745Z 03006KT 29/19 A3014 RMK A01 T02880189  RH  055%=      5-min Rain = 0
KCL1 131746Z 04005KT 29/19 A3014 RMK A01 T02900186  RH  053%=      5-min Rain = 0
KCL1 131747Z 06009KT 29/19 A3014 RMK A01 T02910190  RH  054%=      5-min Rain = 0
KCL1 131748Z 06008KT 29/19 A3014 RMK A01 T02930187  RH  053%=      5-min Rain = 0
KCL1 131749Z 07009KT 29/19 A3014 RMK A01 T02920188  RH  053%=      5-min Rain = 0
KCL1 131750Z 07007KT 29/19 A3014 RMK A01 T02920188  RH  053%=      5-min Rain = 0
KCL1 131751Z 07005KT 29/19 A3014 RMK A01 T02930188  RH  053%=      5-min Rain = 0
KCL1 131752Z 09006KT 29/19 A3014 RMK A01 T02930189  RH  053%=      5-min Rain = 0
KCL1 131753Z 08009KT 29/19 A3014 RMK A01 T02940192  RH  054%=      5-min Rain = 0
KCL1 131754Z 06006KT 30/19 A3014 RMK A01 T02960192  RH  054%=      5-min Rain = 0
KCL1 131755Z 08007KT 30/19 A3014 RMK A01 T02980191  RH  053%=      5-min Rain = 0
KCL1 131756Z 07007G12KT 30/19 A3014 RMK A01 T02980192  RH  053%=      5-min Rain = 0
KCL1 131757Z 04009KT 30/19 A3014 RMK A01 T02990187  RH  051%=      5-min Rain = 0
KCL1 131758Z 05007KT 30/19 A3014 RMK A01 T02980187  RH  051%=      5-min Rain = 0
KCL1 131759Z 08008KT 30/19 A3014 RMK A01 T02990190  RH  052%=      5-min Rain = 0
KCL1 131800Z 08008KT 30/19 A3014 RMK A01 T03010186  RH  050%=      5-min Rain = 0
KCL1 131801Z 05010KT 30/19 A3014 RMK A01 T03010189  RH  051%=      5-min Rain = 0
KCL1 131802Z 03009KT 30/19 A3014 RMK A01 T03000187  RH  051%=      5-min Rain = 0
KCL1 131803Z 04007KT 30/19 A3014 RMK A01 T02980185  RH  051%=      5-min Rain = 0
KCL1 131804Z 05007KT 30/19 A3014 RMK A01 T02960187  RH  052%=      5-min Rain = 0
KCL1 131805Z 06004KT 30/19 A3014 RMK A01 T02960188  RH  052%=      5-min Rain = 0
KCL1 131806Z 04006KT 30/19 A3014 RMK A01 T02970188  RH  052%=      5-min Rain = 0
KCL1 131807Z 03007KT 30/19 A3013 RMK A01 T02970186  RH  051%=      5-min Rain = 0
KCL1 131808Z 06007KT 30/19 A3013 RMK A01 T02970185  RH  051%=      5-min Rain = 0
KCL1 131809Z 05005KT 30/19 A3013 RMK A01 T02970187  RH  052%=      5-min Rain = 0
KCL1 131810Z 06007KT 30/19 A3013 RMK A01 T03000187  RH  051%=      5-min Rain = 0
KCL1 131811Z 06008KT 30/18 A3013 RMK A01 T03020183  RH  049%=      5-min Rain = 0
KCL1 131812Z 06008KT 30/18 A3013 RMK A01 T03030182  RH  048%=      5-min Rain = 0
KCL1 131813Z 04006KT 30/18 A3013 RMK A01 T03040184  RH  049%=      5-min Rain = 0
KCL1 131814Z 08006KT 30/18 A3013 RMK A01 T03020180  RH  048%=      5-min Rain = 0
KCL1 131815Z 06010KT 30/18 A3013 RMK A01 T02970179  RH  049%=      5-min Rain = 0
KCL1 131816Z 05010KT 29/18 A3013 RMK A01 T02940184  RH  052%=      5-min Rain = 0
KCL1 131817Z 05011KT 29/18 A3013 RMK A01 T02930181  RH  051%=      5-min Rain = 0
KCL1 131818Z 04008KT 29/18 A3013 RMK A01 T02940180  RH  050%=      5-min Rain = 0
KCL1 131819Z 05009KT 29/18 A3013 RMK A01 T02930181  RH  051%=      5-min Rain = 0
KCL1 131820Z 05009KT 29/18 A3013 RMK A01 T02920182  RH  052%=      5-min Rain = 0
KCL1 131821Z 06009KT 29/18 A3013 RMK A01 T02920183  RH  052%=      5-min Rain = 0
KCL1 131822Z 05007KT 29/18 A3013 RMK A01 T02930182  RH  051%=      5-min Rain = 0
KCL1 131823Z 05007KT 30/18 A3013 RMK A01 T02950184  RH  051%=      5-min Rain = 0
KCL1 131824Z 06007KT 30/18 A3013 RMK A01 T02980180  RH  049%=      5-min Rain = 0
KCL1 131825Z 05005KT 30/18 A3013 RMK A01 T02980179  RH  049%=      5-min Rain = 0
KCL1 131826Z 06004KT 30/18 A3013 RMK A01 T02980181  RH  050%=      5-min Rain = 0
KCL1 131827Z 06003KT 30/18 A3013 RMK A01 T02980182  RH  050%=      5-min Rain = 0
KCL1 131828Z 07007KT 30/18 A3013 RMK A01 T03000181  RH  049%=      5-min Rain = 0
KCL1 131829Z 08009KT 30/18 A3013 RMK A01 T03010181  RH  049%=      5-min Rain = 0
KCL1 131830Z 08011KT 30/19 A3013 RMK A01 T03040185  RH  049%=      5-min Rain = 0
KCL1 131831Z 10013KT 31/19 A3013 RMK A01 T03060185  RH  048%=      5-min Rain = 0
KCL1 131832Z 09010KT 31/18 A3013 RMK A01 T03070183  RH  048%=      5-min Rain = 0
KCL1 131833Z 10012KT 31/18 A3013 RMK A01 T03070183  RH  047%=      5-min Rain = 0
KCL1 131834Z 10009KT 31/18 A3013 RMK A01 T03060184  RH  048%=      5-min Rain = 0
KCL1 131835Z 10010KT 31/18 A3013 RMK A01 T03060184  RH  048%=      5-min Rain = 0
KCL1 131836Z 10006KT 31/18 A3013 RMK A01 T03060184  RH  048%=      5-min Rain = 0
KCL1 131837Z 07008KT 31/18 A3013 RMK A01 T03060182  RH  047%=      5-min Rain = 0
KCL1 131838Z 09006KT 31/18 A3013 RMK A01 T03050178  RH  047%=      5-min Rain = 0
KCL1 131839Z 09005KT 30/18 A3013 RMK A01 T03020178  RH  047%=      5-min Rain = 0
KCL1 131840Z 07008G13KT 30/18 A3013 RMK A01 T03010178  RH  048%=      5-min Rain = 0
KCL1 131841Z 07010KT 30/18 A3013 RMK A01 T03010179  RH  048%=      5-min Rain = 0
KCL1 131842Z 06009KT 30/18 A3013 RMK A01 T03030179  RH  048%=      5-min Rain = 0
KCL1 131843Z 05010KT 30/18 A3013 RMK A01 T03030180  RH  048%=      5-min Rain = 0
KCL1 131844Z 04008KT 30/18 A3013 RMK A01 T03040178  RH  047%=      5-min Rain = 0
KCL1 131845Z 05005KT 30/18 A3013 RMK A01 T03020177  RH  047%=      5-min Rain = 0
KCL1 131846Z 05005KT 30/18 A3013 RMK A01 T03020182  RH  049%=      5-min Rain = 0
KCL1 131847Z 06010G16KT 30/18 A3013 RMK A01 T03040182  RH  048%=      5-min Rain = 0
KCL1 131848Z 06011KT 31/18 A3013 RMK A01 T03080183  RH  047%=      5-min Rain = 0
KCL1 131849Z 06011KT 31/18 A3013 RMK A01 T03090179  RH  046%=      5-min Rain = 0
KCL1 131850Z 06008KT 31/18 A3013 RMK A01 T03070179  RH  046%=      5-min Rain = 0
KCL1 131851Z 05006KT 31/18 A3013 RMK A01 T03050180  RH  047%=      5-min Rain = 0
KCL1 131852Z 06007KT 31/18 A3013 RMK A01 T03050181  RH  047%=      5-min Rain = 0
KCL1 131853Z 05008KT 31/18 A3013 RMK A01 T03060182  RH  048%=      5-min Rain = 0
KCL1 131854Z 05008KT 31/18 A3013 RMK A01 T03070184  RH  048%=      5-min Rain = 0
KCL1 131855Z 06006KT 31/18 A3013 RMK A01 T03080182  RH  047%=      5-min Rain = 0
KCL1 131856Z 08005KT 31/18 A3013 RMK A01 T03060179  RH  047%=      5-min Rain = 0
KCL1 131857Z 05004KT 31/19 A3013 RMK A01 T03060185  RH  048%=      5-min Rain = 0
KCL1 131858Z 02008KT 31/19 A3013 RMK A01 T03090188  RH  048%=      5-min Rain = 0
KCL1 131859Z 02009KT 31/18 A3013 RMK A01 T03120182  RH  046%=      5-min Rain = 0
KCL1 131900Z 03009KT 31/18 A3013 RMK A01 T03110181  RH  046%=      5-min Rain = 0
KCL1 131901Z 03007KT 31/18 A3013 RMK A01 T03090181  RH  047%=      5-min Rain = 0
KCL1 131902Z 03005KT 31/18 A3012 RMK A01 T03070179  RH  046%=      5-min Rain = 0
KCL1 131903Z 06007KT 31/18 A3013 RMK A01 T03060178  RH  047%=      5-min Rain = 0
KCL1 131904Z 07007KT 30/18 A3012 RMK A01 T03040180  RH  048%=      5-min Rain = 0
KCL1 131905Z 08004KT 30/18 A3012 RMK A01 T03040180  RH  047%=      5-min Rain = 0
KCL1 131906Z 09003KT 31/18 A3012 RMK A01 T03050181  RH  048%=      5-min Rain = 0
KCL1 131907Z 07005KT 31/18 A3012 RMK A01 T03070183  RH  048%=      5-min Rain = 0
KCL1 131908Z 08005KT 31/18 A3012 RMK A01 T03070182  RH  047%=      5-min Rain = 0
KCL1 131909Z 04006KT 31/18 A3012 RMK A01 T03060181  RH  047%=      5-min Rain = 0
KCL1 131910Z 04008KT 31/18 A3012 RMK A01 T03050183  RH  048%=      5-min Rain = 0
KCL1 131911Z 03008KT 31/18 A3012 RMK A01 T03060181  RH  047%=      5-min Rain = 0
KCL1 131912Z 03006KT 31/18 A3012 RMK A01 T03050182  RH  048%=      5-min Rain = 0
KCL1 131913Z 02006KT 31/19 A3012 RMK A01 T03060186  RH  049%=      5-min Rain = 0
KCL1 131914Z 06010KT 31/18 A3012 RMK A01 T03090175  RH  045%=      5-min Rain = 0
KCL1 131915Z 05009KT 31/17 A3012 RMK A01 T03090172  RH  044%=      5-min Rain = 0
KCL1 131916Z 07009KT 31/17 A3012 RMK A01 T03090173  RH  044%=      5-min Rain = 0
KCL1 131917Z 07006KT 31/17 A3012 RMK A01 T03090171  RH  043%=      5-min Rain = 0
KCL1 131918Z 07010KT 31/18 A3012 RMK A01 T03080177  RH  045%=      5-min Rain = 0
KCL1 131919Z 07011KT 31/17 A3012 RMK A01 T03110173  RH  044%=      5-min Rain = 0
KCL1 131920Z 07006KT 31/18 A3012 RMK A01 T03130176  RH  044%=      5-min Rain = 0
KCL1 131921Z 05007KT 32/17 A3012 RMK A01 T03150174  RH  043%=      5-min Rain = 0
KCL1 131922Z 04005KT 32/17 A3012 RMK A01 T03160174  RH  043%=      5-min Rain = 0
KCL1 131923Z 04006KT 32/18 A3012 RMK A01 T03150175  RH  043%=      5-min Rain = 0
KCL1 131924Z 04007KT 32/18 A3012 RMK A01 T03150177  RH  044%=      5-min Rain = 0
KCL1 131925Z 07008G13KT 32/18 A3012 RMK A01 T03160177  RH  044%=      5-min Rain = 0
KCL1 131926Z 07009KT 32/17 A3012 RMK A01 T03160173  RH  042%=      5-min Rain = 0
KCL1 131927Z 06010G16KT 31/17 A3012 RMK A01 T03140173  RH  043%=      5-min Rain = 0
KCL1 131928Z 08011KT 32/18 A3012 RMK A01 T03150177  RH  044%=      5-min Rain = 0
KCL1 131929Z 06012KT 32/18 A3012 RMK A01 T03180176  RH  043%=      5-min Rain = 0
KCL1 131930Z 07010KT 32/17 A3012 RMK A01 T03190171  RH  041%=      5-min Rain = 0
KCL1 131931Z 07009KT 32/17 A3012 RMK A01 T03170171  RH  042%=      5-min Rain = 0
KCL1 131932Z 09009KT 31/17 A3012 RMK A01 T03140173  RH  043%=      5-min Rain = 0
KCL1 131933Z 09009KT 32/17 A3012 RMK A01 T03160172  RH  042%=      5-min Rain = 0
KCL1 131934Z 10009KT 32/17 A3012 RMK A01 T03170170  RH  041%=      5-min Rain = 0
KCL1 131935Z 09007KT 32/17 A3012 RMK A01 T03160171  RH  042%=      5-min Rain = 0
KCL1 131936Z 09008KT 32/17 A3012 RMK A01 T03160172  RH  042%=      5-min Rain = 0
KCL1 131937Z 09005KT 31/17 A3012 RMK A01 T03130168  RH  042%=      5-min Rain = 0
KCL1 131938Z 07005KT 31/17 A3012 RMK A01 T03120169  RH  042%=      5-min Rain = 0
KCL1 131939Z 09006KT 31/17 A3012 RMK A01 T03110171  RH  043%=      5-min Rain = 0
KCL1 131940Z 07009KT 31/17 A3012 RMK A01 T03130174  RH  043%=      5-min Rain = 0
KCL1 131941Z 06008KT 32/18 A3012 RMK A01 T03150175  RH  043%=      5-min Rain = 0
KCL1 131942Z 08011KT 32/18 A3012 RMK A01 T03160177  RH  044%=      5-min Rain = 0
KCL1 131943Z 09011KT 32/18 A3012 RMK A01 T03180176  RH  043%=      5-min Rain = 0
KCL1 131944Z 09008KT 32/18 A3011 RMK A01 T03180177  RH  043%=      5-min Rain = 0
KCL1 131945Z 11011KT 32/18 A3011 RMK A01 T03180179  RH  043%=      5-min Rain = 0
KCL1 131946Z 07011KT 32/18 A3012 RMK A01 T03200179  RH  043%=      5-min Rain = 0
KCL1 131947Z 06011KT 32/17 A3012 RMK A01 T03210174  RH  041%=      5-min Rain = 0
KCL1 131948Z 06009KT 32/17 A3012 RMK A01 T03200166  RH  040%=      5-min Rain = 0
KCL1 131949Z 07009KT 32/17 A3012 RMK A01 T03170168  RH  041%=      5-min Rain = 0
KCL1 131950Z 06010KT 32/17 A3012 RMK A01 T03170172  RH  042%=      5-min Rain = 0
KCL1 131951Z 05010KT 32/18 A3012 RMK A01 T03170175  RH  043%=      5-min Rain = 0
KCL1 131952Z 06012G17KT 32/18 A3012 RMK A01 T03170177  RH  043%=      5-min Rain = 0
KCL1 131953Z 08015KT 32/17 A3012 RMK A01 T03180173  RH  042%=      5-min Rain = 0
KCL1 131954Z 07011KT 32/18 A3012 RMK A01 T03160175  RH  043%=      5-min Rain = 0
KCL1 131955Z 08010KT 32/18 A3012 RMK A01 T03180177  RH  043%=      5-min Rain = 0
KCL1 131956Z 06009KT 32/18 A3012 RMK A01 T03190176  RH  042%=      5-min Rain = 0
KCL1 131957Z 06009KT 32/18 A3011 RMK A01 T03210177  RH  042%=      5-min Rain = 0
KCL1 131958Z 07008KT 32/18 A3011 RMK A01 T03210175  RH  042%=      5-min Rain = 0
KCL1 131959Z 08006KT 32/18 A3011 RMK A01 T03190175  RH  042%=      5-min Rain = 0
KCL1 132000Z 05008KT 32/18 A3011 RMK A01 T03170177  RH  043%=      5-min Rain = 0
KCL1 132001Z 06010KT 32/17 A3011 RMK A01 T03180172  RH  042%=      5-min Rain = 0
KCL1 132002Z 04009KT 32/17 A3011 RMK A01 T03170173  RH  042%=      5-min Rain = 0
KCL1 132003Z 05012KT 32/17 A3011 RMK A01 T03160172  RH  042%=      5-min Rain = 0
KCL1 132004Z 06011KT 32/17 A3011 RMK A01 T03160170  RH  041%=      5-min Rain = 0
KCL1 132005Z 07010KT 32/17 A3011 RMK A01 T03170170  RH  041%=      5-min Rain = 0
KCL1 132006Z 07012KT 32/17 A3011 RMK A01 T03180169  RH  041%=      5-min Rain = 0
KCL1 132007Z 06009KT 32/17 A3011 RMK A01 T03160172  RH  042%=      5-min Rain = 0
KCL1 132008Z 05010KT 32/17 A3011 RMK A01 T03160170  RH  041%=      5-min Rain = 0
KCL1 132009Z 06006KT 32/16 A3011 RMK A01 T03150164  RH  040%=      5-min Rain = 0
KCL1 132010Z 07009KT 31/17 A3011 RMK A01 T03130170  RH  042%=      5-min Rain = 0
KCL1 132011Z 07010KT 32/17 A3011 RMK A01 T03150169  RH  042%=      5-min Rain = 0
KCL1 132012Z 07009KT 32/17 A3011 RMK A01 T03170169  RH  041%=      5-min Rain = 0
KCL1 132013Z 10009KT 32/17 A3011 RMK A01 T03180169  RH  041%=      5-min Rain = 0
KCL1 132014Z 10007KT 32/17 A3011 RMK A01 T03180171  RH  041%=      5-min Rain = 0
KCL1 132015Z 10006KT 32/17 A3011 RMK A01 T03180168  RH  041%=      5-min Rain = 0
KCL1 132016Z 05008KT 32/17 A3011 RMK A01 T03180170  RH  041%=      5-min Rain = 0
KCL1 132017Z 06010KT 32/17 A3011 RMK A01 T03190169  RH  041%=      5-min Rain = 0
KCL1 132018Z 07011KT 32/17 A3011 RMK A01 T03210166  RH  040%=      5-min Rain = 0
KCL1 132019Z 06011KT 32/17 A3011 RMK A01 T03210166  RH  040%=      5-min Rain = 0
KCL1 132020Z 08012KT 32/16 A3011 RMK A01 T03200164  RH  039%=      5-min Rain = 0
KCL1 132021Z 07012KT 32/17 A3011 RMK A01 T03200166  RH  040%=      5-min Rain = 0
KCL1 132022Z 07012KT 32/17 A3011 RMK A01 T03200165  RH  040%=      5-min Rain = 0
KCL1 132023Z 07009KT 32/17 A3011 RMK A01 T03190166  RH  040%=      5-min Rain = 0
KCL1 132024Z 08010KT 32/17 A3011 RMK A01 T03180165  RH  040%=      5-min Rain = 0
KCL1 132025Z 07010KT 32/16 A3011 RMK A01 T03160162  RH  040%=      5-min Rain = 0
KCL1 132026Z 07008KT 32/16 A3011 RMK A01 T03150158  RH  039%=      5-min Rain = 0
KCL1 132027Z 07005KT 31/16 A3011 RMK A01 T03140156  RH  038%=      5-min Rain = 0
KCL1 132028Z 09003KT 31/16 A301 RMK A01 T03140158  RH  039%=      5-min Rain = 0
KCL1 132029Z 06005KT 32/16 A301 RMK A01 T03150162  RH  040%=      5-min Rain = 0
KCL1 132030Z 08006KT 32/17 A301 RMK A01 T03190167  RH  040%=      5-min Rain = 0
KCL1 132031Z 06012KT 32/17 A301 RMK A01 T03220169  RH  040%=      5-min Rain = 0
KCL1 132032Z 07010KT 32/17 A301 RMK A01 T03220168  RH  040%=      5-min Rain = 0
KCL1 132033Z 06009KT 32/17 A301 RMK A01 T03210167  RH  040%=      5-min Rain = 0
KCL1 132034Z 07008KT 32/17 A301 RMK A01 T03190166  RH  040%=      5-min Rain = 0
KCL1 132035Z 07008KT 32/17 A301 RMK A01 T03170169  RH  041%=      5-min Rain = 0
KCL1 132036Z 06009KT 32/17 A301 RMK A01 T03170171  RH  041%=      5-min Rain = 0
KCL1 132037Z 06010KT 32/17 A301 RMK A01 T03180168  RH  041%=      5-min Rain = 0
KCL1 132038Z 07009KT 32/17 A301 RMK A01 T03180170  RH  041%=      5-min Rain = 0
KCL1 132039Z 08011KT 32/17 A301 RMK A01 T03170169  RH  041%=      5-min Rain = 0
KCL1 132040Z 07011KT 32/17 A301 RMK A01 T03180169  RH  041%=      5-min Rain = 0
KCL1 132041Z 07011KT 32/17 A301 RMK A01 T03180169  RH  041%=      5-min Rain = 0
KCL1 132042Z 09008KT 32/17 A301 RMK A01 T03170167  RH  041%=      5-min Rain = 0
KCL1 132043Z 11008KT 32/17 A301 RMK A01 T03150168  RH  041%=      5-min Rain = 0
KCL1 132044Z 07011KT 31/17 A301 RMK A01 T03140168  RH  041%=      5-min Rain = 0
KCL1 132045Z 08011KT 32/17 A301 RMK A01 T03170168  RH  041%=      5-min Rain = 0
KCL1 132046Z 08007KT 32/17 A301 RMK A01 T03180167  RH  040%=      5-min Rain = 0
KCL1 132047Z 10006KT 32/17 A301 RMK A01 T03180166  RH  040%=      5-min Rain = 0
KCL1 132048Z 09006KT 32/17 A301 RMK A01 T03170166  RH  040%=      5-min Rain = 0
KCL1 132049Z 10009KT 32/17 A301 RMK A01 T03160167  RH  041%=      5-min Rain = 0
KCL1 132050Z 09010KT 32/17 A301 RMK A01 T03180166  RH  040%=      5-min Rain = 0
KCL1 132051Z 08008KT 32/16 A301 RMK A01 T03200164  RH  039%=      5-min Rain = 0
KCL1 132052Z 09008KT 32/16 A301 RMK A01 T03180162  RH  039%=      5-min Rain = 0
KCL1 132053Z 09010KT 32/17 A301 RMK A01 T03160166  RH  041%=      5-min Rain = 0
KCL1 132054Z 09013KT 32/17 A301 RMK A01 T03190165  RH  040%=      5-min Rain = 0
KCL1 132055Z 08010KT 32/16 A301 RMK A01 T03190164  RH  039%=      5-min Rain = 0
KCL1 132056Z 09006KT 32/16 A301 RMK A01 T03180163  RH  039%=      5-min Rain = 0
KCL1 132057Z 09007KT 32/16 A301 RMK A01 T03170162  RH  040%=      5-min Rain = 0
KCL1 132058Z 09009KT 32/17 A301 RMK A01 T03170166  RH  040%=      5-min Rain = 0
KCL1 132059Z 08008KT 32/17 A301 RMK A01 T03180167  RH  041%=      5-min Rain = 0
KCL1 132100Z 06009KT 32/17 A301 RMK A01 T03200167  RH  040%=      5-min Rain = 0
KCL1 132101Z 05006KT 32/17 A301 RMK A01 T03190170  RH  041%=      5-min Rain = 0
KCL1 132102Z 06012KT 32/17 A301 RMK A01 T03200167  RH  040%=      5-min Rain = 0
KCL1 132103Z 07012KT 32/17 A301 RMK A01 T03200166  RH  040%=      5-min Rain = 0
KCL1 132104Z 08011KT 32/16 A301 RMK A01 T03190164  RH  039%=      5-min Rain = 0
KCL1 132105Z 08008KT 32/17 A301 RMK A01 T03190166  RH  040%=      5-min Rain = 0
KCL1 132106Z 06008KT 32/17 A301 RMK A01 T03200168  RH  040%=      5-min Rain = 0
KCL1 132107Z 05008KT 32/16 A301 RMK A01 T03220162  RH  038%=      5-min Rain = 0
KCL1 132108Z 05007KT 32/16 A301 RMK A01 T03190163  RH  039%=      5-min Rain = 0
KCL1 132109Z 06005KT 32/16 A301 RMK A01 T03180163  RH  040%=      5-min Rain = 0
KCL1 132110Z 04008KT 32/17 A3009 RMK A01 T03170165  RH  040%=      5-min Rain = 0
KCL1 132111Z 05012KT 32/17 A3009 RMK A01 T03170167  RH  041%=      5-min Rain = 0
KCL1 132112Z 07011KT 32/17 A3009 RMK A01 T03170171  RH  041%=      5-min Rain = 0
KCL1 132113Z 08013KT 32/17 A3009 RMK A01 T03220173  RH  041%=      5-min Rain = 0
KCL1 132114Z 09012G18KT 32/17 A3009 RMK A01 T03230170  RH  040%=      5-min Rain = 0
KCL1 132115Z 09014KT 32/17 A3009 RMK A01 T03220170  RH  040%=      5-min Rain = 0
KCL1 132116Z 08014KT 32/17 A3009 RMK A01 T03210169  RH  040%=      5-min Rain = 0
KCL1 132117Z 08008KT 32/17 A3009 RMK A01 T03190169  RH  041%=      5-min Rain = 0
KCL1 132118Z 07007KT 32/17 A3009 RMK A01 T03190172  RH  041%=      5-min Rain = 0
KCL1 132119Z 07010KT 32/17 A3009 RMK A01 T03210172  RH  041%=      5-min Rain = 0
KCL1 132120Z 07011KT 32/17 A3009 RMK A01 T03200170  RH  041%=      5-min Rain = 0
KCL1 132121Z 09009KT 32/17 A3009 RMK A01 T03160170  RH  042%=      5-min Rain = 0
KCL1 132122Z 09007KT 31/17 A3009 RMK A01 T03140171  RH  042%=      5-min Rain = 0
KCL1 132123Z 12004KT 31/17 A3009 RMK A01 T03140172  RH  043%=      5-min Rain = 0
KCL1 132124Z 11005KT 32/17 A3009 RMK A01 T03150173  RH  043%=      5-min Rain = 0
KCL1 132125Z 12005KT 32/17 A3009 RMK A01 T03160174  RH  043%=      5-min Rain = 0
KCL1 132126Z 10008KT 32/18 A3009 RMK A01 T03190176  RH  043%=      5-min Rain = 0
KCL1 132127Z 09012KT 32/17 A3009 RMK A01 T03210173  RH  041%=      5-min Rain = 0
KCL1 132128Z 09007KT 32/17 A3009 RMK A01 T03200173  RH  041%=      5-min Rain = 0
KCL1 132129Z 06008KT 32/17 A3009 RMK A01 T03200172  RH  041%=      5-min Rain = 0
KCL1 132130Z 07006KT 32/17 A3009 RMK A01 T03180172  RH  042%=      5-min Rain = 0
KCL1 132131Z 10007KT 32/17 A3009 RMK A01 T03170173  RH  042%=      5-min Rain = 0
KCL1 132132Z 09009KT 32/17 A3009 RMK A01 T03190173  RH  042%=      5-min Rain = 0
KCL1 132133Z 11010KT 32/17 A3009 RMK A01 T03210173  RH  041%=      5-min Rain = 0
KCL1 132134Z 10009KT 32/17 A3009 RMK A01 T03220173  RH  041%=      5-min Rain = 0
KCL1 132135Z 09006KT 32/17 A3009 RMK A01 T03230172  RH  040%=      5-min Rain = 0
KCL1 132136Z 10010G15KT 32/17 A3009 RMK A01 T03220171  RH  040%=      5-min Rain = 0
KCL1 132137Z 10011KT 32/17 A3009 RMK A01 T03210169  RH  040%=      5-min Rain = 0
KCL1 132138Z 11006KT 32/17 A3009 RMK A01 T03200169  RH  040%=      5-min Rain = 0
KCL1 132139Z 10005KT 32/17 A3008 RMK A01 T03190170  RH  041%=      5-min Rain = 0
KCL1 132140Z 10010KT 32/17 A3009 RMK A01 T03190170  RH  041%=      5-min Rain = 0
KCL1 132141Z 09010KT 32/17 A3009 RMK A01 T03200170  RH  041%=      5-min Rain = 0
KCL1 132142Z 08009KT 32/17 A3009 RMK A01 T03210172  RH  041%=      5-min Rain = 0
KCL1 132143Z 09005KT 32/17 A3008 RMK A01 T03210170  RH  040%=      5-min Rain = 0
KCL1 132144Z 07006KT 32/17 A3008 RMK A01 T03200169  RH  041%=      5-min Rain = 0
KCL1 132145Z 07008G13KT 32/17 A3008 RMK A01 T03190171  RH  041%=      5-min Rain = 0
KCL1 132146Z 10011KT 32/17 A3008 RMK A01 T03200169  RH  040%=      5-min Rain = 0
KCL1 132147Z 10012G17KT 32/17 A3008 RMK A01 T03210169  RH  040%=      5-min Rain = 0
KCL1 132148Z 09013KT 32/17 A3008 RMK A01 T03210166  RH  040%=      5-min Rain = 0
KCL1 132149Z 09011KT 32/17 A3008 RMK A01 T03190167  RH  040%=      5-min Rain = 0
KCL1 132150Z 09011KT 32/17 A3008 RMK A01 T03180167  RH  041%=      5-min Rain = 0
KCL1 132151Z 10008KT 32/17 A3008 RMK A01 T03170168  RH  041%=      5-min Rain = 0
KCL1 132152Z 10007KT 32/17 A3008 RMK A01 T03180169  RH  041%=      5-min Rain = 0
KCL1 132153Z 09009KT 32/17 A3008 RMK A01 T03190166  RH  040%=      5-min Rain = 0
KCL1 132154Z 10011KT 32/17 A3008 RMK A01 T03180168  RH  041%=      5-min Rain = 0
KCL1 132155Z 11009KT 32/17 A3008 RMK A01 T03180165  RH  040%=      5-min Rain = 0
KCL1 132156Z 12007KT 32/17 A3008 RMK A01 T03180169  RH  041%=      5-min Rain = 0
KCL1 132157Z 10008KT 32/17 A3008 RMK A01 T03220171  RH  041%=      5-min Rain = 0
KCL1 132158Z 11011KT 32/17 A3008 RMK A01 T03230172  RH  041%=      5-min Rain = 0
KCL1 132159Z 12011KT 32/17 A3008 RMK A01 T03220171  RH  040%=      5-min Rain = 0
KCL1 132200Z 11010KT 32/17 A3008 RMK A01 T03220172  RH  041%=      5-min Rain = 0
KCL1 132201Z 11009KT 32/17 A3008 RMK A01 T03220173  RH  041%=      5-min Rain = 0
KCL1 132202Z 11009KT 32/17 A3008 RMK A01 T03220169  RH  040%=      5-min Rain = 0
KCL1 132203Z 11009KT 32/17 A3008 RMK A01 T03210172  RH  041%=      5-min Rain = 0
KCL1 132204Z 09012KT 32/17 A3008 RMK A01 T03210168  RH  040%=      5-min Rain = 0
KCL1 132205Z 11010KT 32/17 A3008 RMK A01 T03200165  RH  040%=      5-min Rain = 0
KCL1 132206Z 11011KT 32/17 A3008 RMK A01 T03180167  RH  040%=      5-min Rain = 0
KCL1 132207Z 12009KT 32/17 A3008 RMK A01 T03180166  RH  040%=      5-min Rain = 0
KCL1 132208Z 12007KT 32/17 A3008 RMK A01 T03180166  RH  040%=      5-min Rain = 0
KCL1 132209Z 12007KT 32/17 A3008 RMK A01 T03190167  RH  040%=      5-min Rain = 0
KCL1 132210Z 10009KT 32/17 A3008 RMK A01 T03200170  RH  041%=      5-min Rain = 0
KCL1 132211Z 10012KT 32/17 A3008 RMK A01 T03220168  RH  040%=      5-min Rain = 0
KCL1 132212Z 08010KT 32/17 A3008 RMK A01 T03200167  RH  040%=      5-min Rain = 0
KCL1 132213Z 09010KT 32/17 A3008 RMK A01 T03180168  RH  041%=      5-min Rain = 0
KCL1 132214Z 09012KT 32/17 A3008 RMK A01 T03170169  RH  041%=      5-min Rain = 0
KCL1 132215Z 07007KT 32/17 A3008 RMK A01 T03170167  RH  041%=      5-min Rain = 0
KCL1 132216Z 06007KT 32/17 A3008 RMK A01 T03160168  RH  041%=      5-min Rain = 0
KCL1 132217Z 07010KT 32/17 A3008 RMK A01 T03160169  RH  041%=      5-min Rain = 0
KCL1 132218Z 07011KT 32/17 A3008 RMK A01 T03170168  RH  041%=      5-min Rain = 0
KCL1 132219Z 09012KT 32/17 A3008 RMK A01 T03170166  RH  040%=      5-min Rain = 0
KCL1 132220Z 09011KT 32/17 A3008 RMK A01 T03170167  RH  041%=      5-min Rain = 0
KCL1 132221Z 10010KT 32/17 A3008 RMK A01 T03160169  RH  041%=      5-min Rain = 0
KCL1 132222Z 09010KT 32/17 A3008 RMK A01 T03180171  RH  041%=      5-min Rain = 0
KCL1 132223Z 09009KT 32/17 A3008 RMK A01 T03190167  RH  040%=      5-min Rain = 0
KCL1 132224Z 09008KT 32/17 A3008 RMK A01 T03180169  RH  041%=      5-min Rain = 0
KCL1 132225Z 08008KT 32/17 A3008 RMK A01 T03170167  RH  040%=      5-min Rain = 0
KCL1 132226Z 09008KT 32/16 A3008 RMK A01 T03160163  RH  040%=      5-min Rain = 0
KCL1 132227Z 11006KT 32/16 A3008 RMK A01 T03150161  RH  040%=      5-min Rain = 0
KCL1 132228Z 09005KT 32/16 A3008 RMK A01 T03150163  RH  040%=      5-min Rain = 0
KCL1 132229Z 08005KT 32/16 A3008 RMK A01 T03150162  RH  040%=      5-min Rain = 0
KCL1 132230Z 10008KT 31/16 A3008 RMK A01 T03140162  RH  040%=      5-min Rain = 0
KCL1 132231Z 10009KT 32/16 A3008 RMK A01 T03160163  RH  040%=      5-min Rain = 0
KCL1 132232Z 10009KT 32/16 A3008 RMK A01 T03160163  RH  040%=      5-min Rain = 0
KCL1 132233Z 09013KT 32/16 A3008 RMK A01 T03170164  RH  040%=      5-min Rain = 0
KCL1 132234Z 09011KT 32/16 A3008 RMK A01 T03170160  RH  039%=      5-min Rain = 0
KCL1 132235Z 08007KT 32/16 A3008 RMK A01 T03160160  RH  039%=      5-min Rain = 0
KCL1 132236Z 09011KT 32/16 A3008 RMK A01 T03150162  RH  040%=      5-min Rain = 0
KCL1 132237Z 09008KT 32/16 A3008 RMK A01 T03150164  RH  040%=      5-min Rain = 0
KCL1 132238Z 09010KT 32/17 A3008 RMK A01 T03170171  RH  041%=      5-min Rain = 0
KCL1 132239Z 08012KT 32/17 A3008 RMK A01 T03200169  RH  041%=      5-min Rain = 0
KCL1 132240Z 08014KT 32/17 A3008 RMK A01 T03190167  RH  040%=      5-min Rain = 0
KCL1 132241Z 08012KT 32/17 A3008 RMK A01 T03170167  RH  040%=      5-min Rain = 0
KCL1 132242Z 07007KT 32/17 A3008 RMK A01 T03150167  RH  041%=      5-min Rain = 0
KCL1 132243Z 07010KT 32/17 A3008 RMK A01 T03160171  RH  042%=      5-min Rain = 0
KCL1 132244Z 07009KT 32/17 A3008 RMK A01 T03180168  RH  041%=      5-min Rain = 0
KCL1 132245Z 08012KT 32/17 A3008 RMK A01 T03190168  RH  040%=      5-min Rain = 0
KCL1 132246Z 09012KT 32/16 A3008 RMK A01 T03190164  RH  039%=      5-min Rain = 0
KCL1 132247Z 08011KT 32/16 A3008 RMK A01 T03180159  RH  038%=      5-min Rain = 0
KCL1 132248Z 08009KT 32/16 A3008 RMK A01 T03170159  RH  039%=      5-min Rain = 0
KCL1 132249Z 09011KT 32/16 A3008 RMK A01 T03170160  RH  039%=      5-min Rain = 0
KCL1 132250Z 09009KT 32/16 A3008 RMK A01 T03160160  RH  039%=      5-min Rain = 0
KCL1 132251Z 08010KT 32/16 A3008 RMK A01 T03170164  RH  040%=      5-min Rain = 0
KCL1 132252Z 08011KT 32/17 A3008 RMK A01 T03170165  RH  040%=      5-min Rain = 0
KCL1 132253Z 07011KT 32/16 A3008 RMK A01 T03160163  RH  040%=      5-min Rain = 0
KCL1 132254Z 07010KT 32/16 A3008 RMK A01 T03150162  RH  040%=      5-min Rain = 0
KCL1 132255Z 06008KT 31/16 A3008 RMK A01 T03140162  RH  040%=      5-min Rain = 0
KCL1 132256Z 07007KT 31/16 A3008 RMK A01 T03140163  RH  040%=      5-min Rain = 0
KCL1 132257Z 09007KT 31/16 A3008 RMK A01 T03140162  RH  040%=      5-min Rain = 0
KCL1 132258Z 10008KT 32/16 A3008 RMK A01 T03150160  RH  039%=      5-min Rain = 0
KCL1 132259Z 08007KT 32/16 A3008 RMK A01 T03150158  RH  039%=      5-min Rain = 0
KCL1 132300Z 08005KT 31/16 A3008 RMK A01 T03130160  RH  040%=      5-min Rain = 0
KCL1 132301Z 08008KT 31/17 A3008 RMK A01 T03140165  RH  041%=      5-min Rain = 0
KCL1 132302Z 08007KT 32/17 A3008 RMK A01 T03150165  RH  041%=      5-min Rain = 0
KCL1 132303Z 06009KT 32/17 A3008 RMK A01 T03150166  RH  041%=      5-min Rain = 0
KCL1 132304Z 06011KT 32/16 A3008 RMK A01 T03160164  RH  040%=      5-min Rain = 0
KCL1 132305Z 07011KT 32/16 A3008 RMK A01 T03160163  RH  040%=      5-min Rain = 0
KCL1 132306Z 08009KT 32/16 A3008 RMK A01 T03150159  RH  039%=      5-min Rain = 0
KCL1 132307Z 07007KT 31/16 A3008 RMK A01 T03140161  RH  040%=      5-min Rain = 0
KCL1 132308Z 09007KT 31/16 A3008 RMK A01 T03140158  RH  039%=      5-min Rain = 0
KCL1 132309Z 06005KT 31/16 A3008 RMK A01 T03120158  RH  040%=      5-min Rain = 0
KCL1 132310Z 08008KT 31/16 A3008 RMK A01 T03130164  RH  041%=      5-min Rain = 0
KCL1 132311Z 08010KT 32/16 A3008 RMK A01 T03160160  RH  039%=      5-min Rain = 0
KCL1 132312Z 08009KT 32/16 A3008 RMK A01 T03170158  RH  038%=      5-min Rain = 0
KCL1 132313Z 07008KT 32/16 A3008 RMK A01 T03160157  RH  038%=      5-min Rain = 0
KCL1 132314Z 07007KT 32/16 A3008 RMK A01 T03150158  RH  039%=      5-min Rain = 0
KCL1 132315Z 07008KT 32/16 A3008 RMK A01 T03150161  RH  039%=      5-min Rain = 0
KCL1 132316Z 08008KT 32/16 A3008 RMK A01 T03170160  RH  039%=      5-min Rain = 0
KCL1 132317Z 09005KT 32/15 A3008 RMK A01 T03170152  RH  037%=      5-min Rain = 0
KCL1 132318Z 09006KT 32/15 A3008 RMK A01 T03150153  RH  037%=      5-min Rain = 0
KCL1 132319Z 07007KT 32/16 A3008 RMK A01 T03160156  RH  038%=      5-min Rain = 0
KCL1 132320Z 07008KT 32/15 A3008 RMK A01 T03160153  RH  037%=      5-min Rain = 0
KCL1 132321Z 07007KT 32/15 A3008 RMK A01 T03160154  RH  038%=      5-min Rain = 0
KCL1 132322Z 08005KT 32/16 A3008 RMK A01 T03160157  RH  038%=      5-min Rain = 0
KCL1 132323Z 07006KT 32/16 A3008 RMK A01 T03170162  RH  039%=      5-min Rain = 0
KCL1 132324Z 08006KT 32/16 A3008 RMK A01 T03180164  RH  039%=      5-min Rain = 0
KCL1 132325Z 09007KT 32/16 A3008 RMK A01 T03170164  RH  040%=      5-min Rain = 0
KCL1 132326Z 08009KT 32/17 A3008 RMK A01 T03160165  RH  040%=      5-min Rain = 0
KCL1 132327Z 08010KT 32/16 A3008 RMK A01 T03160164  RH  040%=      5-min Rain = 0
KCL1 132328Z 09009KT 32/16 A3008 RMK A01 T03150164  RH  040%=      5-min Rain = 0
KCL1 132329Z 07010KT 31/17 A3008 RMK A01 T03140165  RH  041%=      5-min Rain = 0
KCL1 132330Z 07008KT 31/16 A3008 RMK A01 T03130163  RH  041%=      5-min Rain = 0
KCL1 132331Z 07006KT 31/16 A3008 RMK A01 T03120163  RH  041%=      5-min Rain = 0
KCL1 132332Z 08006KT 31/16 A3008 RMK A01 T03110164  RH  041%=      5-min Rain = 0
KCL1 132333Z 08008KT 31/17 A3008 RMK A01 T03110165  RH  042%=      5-min Rain = 0
KCL1 132334Z 08010KT 31/16 A3008 RMK A01 T03120161  RH  040%=      5-min Rain = 0
KCL1 132335Z 09008KT 31/16 A3008 RMK A01 T03120162  RH  041%=      5-min Rain = 0
KCL1 132336Z 08006KT 31/16 A3008 RMK A01 T03120163  RH  041%=      5-min Rain = 0
KCL1 132337Z 08009KT 31/17 A3008 RMK A01 T03130165  RH  041%=      5-min Rain = 0
KCL1 132338Z 08010KT 31/17 A3008 RMK A01 T03140167  RH  041%=      5-min Rain = 0
KCL1 132339Z 08011KT 31/17 A3008 RMK A01 T03140167  RH  041%=      5-min Rain = 0
KCL1 132340Z 09009KT 31/17 A3008 RMK A01 T03140168  RH  042%=      5-min Rain = 0
KCL1 132341Z 09009KT 31/17 A3008 RMK A01 T03140168  RH  042%=      5-min Rain = 0
KCL1 132342Z 08010KT 31/17 A3008 RMK A01 T03140167  RH  042%=      5-min Rain = 0
KCL1 132343Z 07009KT 31/17 A3008 RMK A01 T03140167  RH  041%=      5-min Rain = 0
KCL1 132344Z 07010KT 31/17 A3008 RMK A01 T03120165  RH  041%=      5-min Rain = 0
KCL1 132345Z 08008KT 31/17 A3008 RMK A01 T03110165  RH  042%=      5-min Rain = 0
KCL1 132346Z 08012KT 31/17 A3008 RMK A01 T03100167  RH  042%=      5-min Rain = 0
KCL1 132347Z 09011KT 31/17 A3008 RMK A01 T03100167  RH  042%=      5-min Rain = 0
KCL1 132348Z 08008KT 31/17 A3008 RMK A01 T03090169  RH  043%=      5-min Rain = 0
KCL1 132349Z 07008KT 31/17 A3008 RMK A01 T03090169  RH  043%=      5-min Rain = 0
KCL1 132350Z 06007KT 31/17 A3008 RMK A01 T03090168  RH  043%=      5-min Rain = 0
KCL1 132351Z 08005KT 31/17 A3008 RMK A01 T03090167  RH  043%=      5-min Rain = 0
KCL1 132352Z 08008KT 31/17 A3008 RMK A01 T03080167  RH  043%=      5-min Rain = 0
KCL1 132353Z 08007KT 31/17 A3008 RMK A01 T03080168  RH  043%=      5-min Rain = 0
KCL1 132354Z 07007KT 31/17 A3008 RMK A01 T03080169  RH  043%=      5-min Rain = 0
KCL1 132355Z 08009KT 31/17 A3008 RMK A01 T03090169  RH  043%=      5-min Rain = 0
KCL1 132356Z 08011KT 31/17 A3008 RMK A01 T03090169  RH  043%=      5-min Rain = 0
KCL1 132357Z 09009KT 31/17 A3008 RMK A01 T03090169  RH  043%=      5-min Rain = 0
KCL1 132358Z 10010KT 31/17 A3008 RMK A01 T03090167  RH  043%=      5-min Rain = 0
KCL1 132359Z 10008KT 31/17 A3008 RMK A01 T03090167  RH  043%=      5-min Rain = 0
KCL1 140000Z 09008KT 31/17 A3008 RMK A01 T03090167  RH  043%=      5-min Rain = 0
KCL1 140001Z 08006KT 31/17 A3008 RMK A01 T03080170  RH  043%=      5-min Rain = 0
KCL1 140002Z 07009KT 31/17 A3008 RMK A01 T03090169  RH  043%=      5-min Rain = 0
KCL1 140003Z 08010KT 31/17 A3008 RMK A01 T03080167  RH  043%=      5-min Rain = 0
KCL1 140004Z 08011KT 31/17 A3008 RMK A01 T03060166  RH  043%=      5-min Rain = 0
KCL1 140005Z 09007KT 31/17 A3008 RMK A01 T03060167  RH  043%=      5-min Rain = 0
KCL1 140006Z 09007KT 31/17 A3008 RMK A01 T03060169  RH  044%=      5-min Rain = 0
KCL1 140007Z 09008KT 31/17 A3008 RMK A01 T03070168  RH  043%=      5-min Rain = 0
KCL1 140008Z 08007KT 31/17 A3008 RMK A01 T03070169  RH  044%=      5-min Rain = 0
KCL1 140009Z 08007KT 31/17 A3008 RMK A01 T03080171  RH  044%=      5-min Rain = 0
KCL1 140010Z 08007KT 31/17 A3008 RMK A01 T03080171  RH  044%=      5-min Rain = 0
KCL1 140011Z 06008KT 31/17 A3008 RMK A01 T03080171  RH  044%=      5-min Rain = 0
KCL1 140012Z 07009KT 31/17 A3008 RMK A01 T03080170  RH  044%=      5-min Rain = 0
KCL1 140013Z 08010KT 31/17 A3008 RMK A01 T03060168  RH  043%=      5-min Rain = 0
KCL1 140014Z 08008KT 31/17 A3008 RMK A01 T03060169  RH  044%=      5-min Rain = 0
KCL1 140015Z 06009KT 31/17 A3008 RMK A01 T03060169  RH  044%=      5-min Rain = 0
KCL1 140016Z 06008KT 31/17 A3008 RMK A01 T03060168  RH  044%=      5-min Rain = 0
KCL1 140017Z 07008KT 31/17 A3008 RMK A01 T03060170  RH  044%=      5-min Rain = 0
KCL1 140018Z 07007KT 31/17 A3008 RMK A01 T03050168  RH  044%=      5-min Rain = 0
KCL1 140019Z 07007KT 31/17 A3008 RMK A01 T03060170  RH  044%=      5-min Rain = 0
KCL1 140020Z 06008KT 31/17 A3008 RMK A01 T03060169  RH  044%=      5-min Rain = 0
KCL1 140021Z 07007KT 31/17 A3008 RMK A01 T03050170  RH  044%=      5-min Rain = 0
KCL1 140022Z 08009KT 31/17 A3008 RMK A01 T03050171  RH  044%=      5-min Rain = 0
KCL1 140023Z 08008KT 31/17 A3008 RMK A01 T03050170  RH  044%=      5-min Rain = 0
KCL1 140024Z 08011KT 31/17 A3008 RMK A01 T03050171  RH  044%=      5-min Rain = 0
KCL1 140025Z 08011KT 30/17 A3008 RMK A01 T03040169  RH  044%=      5-min Rain = 0
KCL1 140026Z 08008KT 30/17 A3008 RMK A01 T03030169  RH  044%=      5-min Rain = 0
KCL1 140027Z 08008KT 30/17 A3008 RMK A01 T03030170  RH  045%=      5-min Rain = 0
KCL1 140028Z 08008G13KT 30/17 A3008 RMK A01 T03030170  RH  045%=      5-min Rain = 0
KCL1 140029Z 08012KT 30/17 A3008 RMK A01 T03030170  RH  045%=      5-min Rain = 0
KCL1 140030Z 09009KT 30/17 A3008 RMK A01 T03020170  RH  045%=      5-min Rain = 0
KCL1 140031Z 08010KT 30/17 A3008 RMK A01 T03020173  RH  046%=      5-min Rain = 0
KCL1 140032Z 08010KT 30/17 A3008 RMK A01 T03020172  RH  046%=      5-min Rain = 0
KCL1 140033Z 08010KT 30/17 A3008 RMK A01 T03010171  RH  046%=      5-min Rain = 0
KCL1 140034Z 07008KT 30/17 A3008 RMK A01 T03010172  RH  046%=      5-min Rain = 0
KCL1 140035Z 08010KT 30/17 A3008 RMK A01 T03010172  RH  046%=      5-min Rain = 0
KCL1 140036Z 08009KT 30/17 A3008 RMK A01 T03000170  RH  046%=      5-min Rain = 0
KCL1 140037Z 08009KT 30/17 A3008 RMK A01 T03000170  RH  046%=      5-min Rain = 0
KCL1 140038Z 08010KT 30/17 A3008 RMK A01 T03000170  RH  046%=      5-min Rain = 0
KCL1 140039Z 07010KT 30/17 A3008 RMK A01 T03000170  RH  046%=      5-min Rain = 0
KCL1 140040Z 08010KT 30/17 A3008 RMK A01 T02990170  RH  046%=      5-min Rain = 0
KCL1 140041Z 08008KT 30/17 A3008 RMK A01 T02990171  RH  046%=      5-min Rain = 0
KCL1 140042Z 08010KT 30/17 A3008 RMK A01 T02990172  RH  047%=      5-min Rain = 0
KCL1 140043Z 08012KT 30/17 A3008 RMK A01 T02980171  RH  046%=      5-min Rain = 0
KCL1 140044Z 09010KT 30/17 A3008 RMK A01 T02980171  RH  046%=      5-min Rain = 0
KCL1 140045Z 08009KT 30/17 A3008 RMK A01 T02980172  RH  047%=      5-min Rain = 0
KCL1 140046Z 08010KT 30/17 A3009 RMK A01 T02970172  RH  047%=      5-min Rain = 0
KCL1 140047Z 08009KT 30/17 A3009 RMK A01 T02970171  RH  047%=      5-min Rain = 0
KCL1 140048Z 08010KT 30/17 A3009 RMK A01 T02970172  RH  047%=      5-min Rain = 0
KCL1 140049Z 08010KT 30/17 A3009 RMK A01 T02960171  RH  047%=      5-min Rain = 0
KCL1 140050Z 08011KT 30/17 A3009 RMK A01 T02960171  RH  047%=      5-min Rain = 0
KCL1 140051Z 08011KT 30/17 A3009 RMK A01 T02960171  RH  047%=      5-min Rain = 0
KCL1 140052Z 08011KT 30/17 A3009 RMK A01 T02950171  RH  047%=      5-min Rain = 0
KCL1 140053Z 08010KT 30/17 A3009 RMK A01 T02950170  RH  047%=      5-min Rain = 0
KCL1 140054Z 07009KT 29/17 A3009 RMK A01 T02940171  RH  047%=      5-min Rain = 0
KCL1 140055Z 07008KT 29/17 A3009 RMK A01 T02940172  RH  048%=      5-min Rain = 0
KCL1 140056Z 08007KT 29/17 A3009 RMK A01 T02930172  RH  048%=      5-min Rain = 0
KCL1 140057Z 08008KT 29/17 A3009 RMK A01 T02930172  RH  048%=      5-min Rain = 0
KCL1 140058Z 08008KT 29/17 A3009 RMK A01 T02920172  RH  048%=      5-min Rain = 0
KCL1 140059Z 08008KT 29/17 A3009 RMK A01 T02920173  RH  049%=      5-min Rain = 0
KCL1 140100Z 08009KT 29/17 A3009 RMK A01 T02910173  RH  049%=      5-min Rain = 0
KCL1 140101Z 08010KT 29/17 A3009 RMK A01 T02910172  RH  049%=      5-min Rain = 0
KCL1 140102Z 08011KT 29/17 A3009 RMK A01 T02910172  RH  049%=      5-min Rain = 0
KCL1 140103Z 09010KT 29/17 A3009 RMK A01 T02910173  RH  049%=      5-min Rain = 0
KCL1 140104Z 08010KT 29/17 A3009 RMK A01 T02910173  RH  049%=      5-min Rain = 0
KCL1 140105Z 08008KT 29/17 A3009 RMK A01 T02900173  RH  049%=      5-min Rain = 0
KCL1 140106Z 09008KT 29/17 A3009 RMK A01 T02900174  RH  049%=      5-min Rain = 0
KCL1 140107Z 08008KT 29/18 A3009 RMK A01 T02890175  RH  050%=      5-min Rain = 0
KCL1 140108Z 09008KT 29/17 A3009 RMK A01 T02880174  RH  050%=      5-min Rain = 0
KCL1 140109Z 09008KT 29/17 A3009 RMK A01 T02880174  RH  050%=      5-min Rain = 0
KCL1 140110Z 08008KT 29/17 A3009 RMK A01 T02870174  RH  051%=      5-min Rain = 0
KCL1 140111Z 08009KT 29/17 A3009 RMK A01 T02860174  RH  051%=      5-min Rain = 0
KCL1 140112Z 08008KT 29/17 A301 RMK A01 T02860174  RH  051%=      5-min Rain = 0
KCL1 140113Z 08006KT 29/17 A301 RMK A01 T02860174  RH  051%=      5-min Rain = 0
KCL1 140114Z 09008KT 29/17 A301 RMK A01 T02850174  RH  051%=      5-min Rain = 0
KCL1 140115Z 08007KT 28/18 A301 RMK A01 T02840175  RH  051%=      5-min Rain = 0
KCL1 140116Z 08007KT 28/17 A301 RMK A01 T02840174  RH  052%=      5-min Rain = 0
KCL1 140117Z 08007KT 28/18 A301 RMK A01 T02830175  RH  052%=      5-min Rain = 0
KCL1 140118Z 08007KT 28/18 A301 RMK A01 T02820175  RH  052%=      5-min Rain = 0
KCL1 140119Z 08007KT 28/18 A301 RMK A01 T02820175  RH  052%=      5-min Rain = 0
KCL1 140120Z 08007KT 28/18 A301 RMK A01 T02810175  RH  053%=      5-min Rain = 0
KCL1 140121Z 08008KT 28/18 A301 RMK A01 T02810175  RH  053%=      5-min Rain = 0
KCL1 140122Z 08008KT 28/18 A301 RMK A01 T02800176  RH  053%=      5-min Rain = 0
KCL1 140123Z 08007KT 28/18 A301 RMK A01 T02790176  RH  054%=      5-min Rain = 0
KCL1 140124Z 08007KT 28/18 A301 RMK A01 T02780177  RH  054%=      5-min Rain = 0
KCL1 140125Z 08007KT 28/18 A301 RMK A01 T02780177  RH  054%=      5-min Rain = 0
KCL1 140126Z 08006KT 28/18 A301 RMK A01 T02770177  RH  054%=      5-min Rain = 0
KCL1 140127Z 08007KT 28/18 A301 RMK A01 T02760177  RH  055%=      5-min Rain = 0
KCL1 140128Z 08007KT 28/18 A301 RMK A01 T02750178  RH  055%=      5-min Rain = 0
KCL1 140129Z 08008KT 27/18 A301 RMK A01 T02740178  RH  056%=      5-min Rain = 0
KCL1 140130Z 08007KT 27/18 A301 RMK A01 T02730177  RH  056%=      5-min Rain = 0
KCL1 140131Z 08007KT 27/18 A301 RMK A01 T02720178  RH  056%=      5-min Rain = 0
KCL1 140132Z 08007KT 27/18 A301 RMK A01 T02720178  RH  057%=      5-min Rain = 0
KCL1 140133Z 08007KT 27/18 A3011 RMK A01 T02710178  RH  057%=      5-min Rain = 0
KCL1 140134Z 08007KT 27/18 A3011 RMK A01 T02700178  RH  057%=      5-min Rain = 0
KCL1 140135Z 08008KT 27/18 A3011 RMK A01 T02700179  RH  057%=      5-min Rain = 0
KCL1 140136Z 08007KT 27/18 A3011 RMK A01 T02690179  RH  058%=      5-min Rain = 0
KCL1 140137Z 08008KT 27/18 A3011 RMK A01 T02690179  RH  058%=      5-min Rain = 0
KCL1 140138Z 08007KT 27/18 A3011 RMK A01 T02690179  RH  058%=      5-min Rain = 0
KCL1 140139Z 08008KT 27/18 A3011 RMK A01 T02680179  RH  058%=      5-min Rain = 0
KCL1 140140Z 08008KT 27/18 A3011 RMK A01 T02680179  RH  058%=      5-min Rain = 0
KCL1 140141Z 08007KT 27/18 A3011 RMK A01 T02670178  RH  058%=      5-min Rain = 0
KCL1 140142Z 08008KT 27/18 A3011 RMK A01 T02670178  RH  058%=      5-min Rain = 0
KCL1 140143Z 09008KT 27/18 A3011 RMK A01 T02680178  RH  058%=      5-min Rain = 0
KCL1 140144Z 09008KT 27/18 A3011 RMK A01 T02670178  RH  058%=      5-min Rain = 0
KCL1 140145Z 09007KT 27/18 A3011 RMK A01 T02670178  RH  058%=      5-min Rain = 0
KCL1 140146Z 09007KT 27/18 A3011 RMK A01 T02660178  RH  058%=      5-min Rain = 0
KCL1 140147Z 08007KT 27/18 A3011 RMK A01 T02650178  RH  059%=      5-min Rain = 0
KCL1 140148Z 09007KT 27/18 A3011 RMK A01 T02650178  RH  059%=      5-min Rain = 0
KCL1 140149Z 09008KT 26/18 A3011 RMK A01 T02640178  RH  059%=      5-min Rain = 0
KCL1 140150Z 09007KT 26/18 A3011 RMK A01 T02630178  RH  060%=      5-min Rain = 0
KCL1 140151Z 09007KT 26/18 A3011 RMK A01 T02630179  RH  060%=      5-min Rain = 0
KCL1 140152Z 09008KT 26/18 A3011 RMK A01 T02620179  RH  060%=      5-min Rain = 0
KCL1 140153Z 09008KT 26/18 A3011 RMK A01 T02610179  RH  061%=      5-min Rain = 0
KCL1 140154Z 09008KT 26/18 A3011 RMK A01 T02600179  RH  061%=      5-min Rain = 0
KCL1 140155Z 09008KT 26/18 A3012 RMK A01 T02590179  RH  062%=      5-min Rain = 0
KCL1 140156Z 09008KT 26/18 A3012 RMK A01 T02580179  RH  062%=      5-min Rain = 0
KCL1 140157Z 09008KT 26/18 A3012 RMK A01 T02580179  RH  062%=      5-min Rain = 0
KCL1 140158Z 08008KT 26/18 A3012 RMK A01 T02580180  RH  062%=      5-min Rain = 0
KCL1 140159Z 09008KT 26/18 A3012 RMK A01 T02570180  RH  062%=      5-min Rain = 0
KCL1 140200Z 09008KT 26/18 A3012 RMK A01 T02560180  RH  063%=      5-min Rain = 0
KCL1 140201Z 08008KT 26/18 A3012 RMK A01 T02560180  RH  063%=      5-min Rain = 0
KCL1 140202Z 08008KT 26/18 A3012 RMK A01 T02550181  RH  063%=      5-min Rain = 0
KCL1 140203Z 08008KT 25/18 A3013 RMK A01 T02540181  RH  064%=      5-min Rain = 0
KCL1 140204Z 08008KT 25/18 A3013 RMK A01 T02540181  RH  064%=      5-min Rain = 0
KCL1 140205Z 08008KT 25/18 A3013 RMK A01 T02540181  RH  064%=      5-min Rain = 0
KCL1 140206Z 09008KT 25/18 A3013 RMK A01 T02540181  RH  064%=      5-min Rain = 0
KCL1 140207Z 09009KT 25/18 A3013 RMK A01 T02530181  RH  064%=      5-min Rain = 0
KCL1 140208Z 09009KT 25/18 A3013 RMK A01 T02530181  RH  064%=      5-min Rain = 0
KCL1 140209Z 09010KT 25/18 A3013 RMK A01 T02540180  RH  064%=      5-min Rain = 0
KCL1 140210Z 09009KT 25/18 A3013 RMK A01 T02540180  RH  064%=      5-min Rain = 0
KCL1 140211Z 09009KT 26/18 A3013 RMK A01 T02550181  RH  063%=      5-min Rain = 0
KCL1 140212Z 09009KT 26/18 A3013 RMK A01 T02550181  RH  064%=      5-min Rain = 0
KCL1 140213Z 09009KT 25/18 A3013 RMK A01 T02540180  RH  064%=      5-min Rain = 0
KCL1 140214Z 09009KT 25/18 A3013 RMK A01 T02540181  RH  064%=      5-min Rain = 0
KCL1 140215Z 09009KT 25/18 A3013 RMK A01 T02540181  RH  064%=      5-min Rain = 0
KCL1 140216Z 09009KT 25/18 A3013 RMK A01 T02540181  RH  064%=      5-min Rain = 0
KCL1 140217Z 08009KT 25/18 A3013 RMK A01 T02530181  RH  064%=      5-min Rain = 0
KCL1 140218Z 08008KT 25/18 A3013 RMK A01 T02530181  RH  064%=      5-min Rain = 0
KCL1 140219Z 08008KT 25/18 A3013 RMK A01 T02520181  RH  065%=      5-min Rain = 0
KCL1 140220Z 08008KT 25/18 A3014 RMK A01 T02510181  RH  065%=      5-min Rain = 0
KCL1 140221Z 08008KT 25/18 A3014 RMK A01 T02510181  RH  065%=      5-min Rain = 0
KCL1 140222Z 08009KT 25/18 A3014 RMK A01 T02510181  RH  065%=      5-min Rain = 0
KCL1 140223Z 08009KT 25/18 A3014 RMK A01 T02510181  RH  065%=      5-min Rain = 0
KCL1 140224Z 08008KT 25/18 A3014 RMK A01 T02510181  RH  065%=      5-min Rain = 0
KCL1 140225Z 08008KT 25/18 A3014 RMK A01 T02510181  RH  065%=      5-min Rain = 0
KCL1 140226Z 08008KT 25/18 A3014 RMK A01 T02510182  RH  065%=      5-min Rain = 0
KCL1 140227Z 08008KT 25/18 A3014 RMK A01 T02500182  RH  066%=      5-min Rain = 0
KCL1 140228Z 08008KT 25/18 A3014 RMK A01 T02500182  RH  066%=      5-min Rain = 0
KCL1 140229Z 09009KT 25/18 A3014 RMK A01 T02490182  RH  066%=      5-min Rain = 0
KCL1 140230Z 09008KT 25/18 A3014 RMK A01 T02490182  RH  066%=      5-min Rain = 0
KCL1 140231Z 09008KT 25/18 A3014 RMK A01 T02490182  RH  066%=      5-min Rain = 0
KCL1 140232Z 09008KT 25/18 A3014 RMK A01 T02480182  RH  066%=      5-min Rain = 0
KCL1 140233Z 08008KT 25/18 A3014 RMK A01 T02480182  RH  067%=      5-min Rain = 0
KCL1 140234Z 09008KT 25/18 A3014 RMK A01 T02480182  RH  067%=      5-min Rain = 0
KCL1 140235Z 09008KT 25/18 A3014 RMK A01 T02470182  RH  067%=      5-min Rain = 0
KCL1 140236Z 09009KT 25/18 A3014 RMK A01 T02470182  RH  067%=      5-min Rain = 0
KCL1 140237Z 09008KT 25/18 A3014 RMK A01 T02470182  RH  067%=      5-min Rain = 0
KCL1 140238Z 09008KT 25/18 A3014 RMK A01 T02470182  RH  067%=      5-min Rain = 0
KCL1 140239Z 09008KT 25/18 A3014 RMK A01 T02460182  RH  068%=      5-min Rain = 0
KCL1 140240Z 09008KT 25/18 A3014 RMK A01 T02450182  RH  068%=      5-min Rain = 0
KCL1 140241Z 09008KT 24/18 A3014 RMK A01 T02440182  RH  068%=      5-min Rain = 0
KCL1 140242Z 09009KT 24/18 A3014 RMK A01 T02440183  RH  069%=      5-min Rain = 0
KCL1 140243Z 09008KT 24/18 A3014 RMK A01 T02430183  RH  069%=      5-min Rain = 0
KCL1 140244Z 09007KT 24/18 A3015 RMK A01 T02430183  RH  069%=      5-min Rain = 0
KCL1 140245Z 09007KT 24/18 A3015 RMK A01 T02420183  RH  069%=      5-min Rain = 0
KCL1 140246Z 09007KT 24/18 A3015 RMK A01 T02410183  RH  070%=      5-min Rain = 0
KCL1 140247Z 10007KT 24/18 A3015 RMK A01 T02400183  RH  070%=      5-min Rain = 0
KCL1 140248Z 09007KT 24/18 A3015 RMK A01 T02400183  RH  071%=      5-min Rain = 0
KCL1 140249Z 09007KT 24/18 A3015 RMK A01 T02390183  RH  071%=      5-min Rain = 0
KCL1 140250Z 10007KT 24/18 A3015 RMK A01 T02380183  RH  071%=      5-min Rain = 0
KCL1 140251Z 10007KT 24/18 A3015 RMK A01 T02370183  RH  072%=      5-min Rain = 0
KCL1 140252Z 10007KT 24/18 A3015 RMK A01 T02360183  RH  072%=      5-min Rain = 0
KCL1 140253Z 09007KT 24/18 A3015 RMK A01 T02350183  RH  073%=      5-min Rain = 0
KCL1 140254Z 09007KT 23/18 A3015 RMK A01 T02340183  RH  073%=      5-min Rain = 0
KCL1 140255Z 09006KT 23/18 A3015 RMK A01 T02340184  RH  073%=      5-min Rain = 0
KCL1 140256Z 10006KT 23/18 A3015 RMK A01 T02330184  RH  074%=      5-min Rain = 0
KCL1 140257Z 10006KT 23/18 A3015 RMK A01 T02330184  RH  074%=      5-min Rain = 0
KCL1 140258Z 10006KT 23/18 A3015 RMK A01 T02320184  RH  074%=      5-min Rain = 0
KCL1 140259Z 09006KT 23/18 A3015 RMK A01 T02320184  RH  074%=      5-min Rain = 0
KCL1 140300Z 09006KT 23/18 A3015 RMK A01 T02310184  RH  075%=      5-min Rain = 0
KCL1 140301Z 09006KT 23/18 A3015 RMK A01 T02310184  RH  075%=      5-min Rain = 0
KCL1 140302Z 09006KT 23/18 A3015 RMK A01 T02310184  RH  075%=      5-min Rain = 0
KCL1 140303Z 09006KT 23/18 A3015 RMK A01 T02300184  RH  075%=      5-min Rain = 0
KCL1 140304Z 09006KT 23/18 A3015 RMK A01 T02300184  RH  075%=      5-min Rain = 0
KCL1 140305Z 09006KT 23/18 A3015 RMK A01 T02290184  RH  076%=      5-min Rain = 0
KCL1 140306Z 09006KT 23/19 A3015 RMK A01 T02290185  RH  076%=      5-min Rain = 0
KCL1 140307Z 09006KT 23/19 A3015 RMK A01 T02280185  RH  076%=      5-min Rain = 0
KCL1 140308Z 10006KT 23/19 A3015 RMK A01 T02280185  RH  077%=      5-min Rain = 0
KCL1 140309Z 10006KT 23/18 A3015 RMK A01 T02270184  RH  077%=      5-min Rain = 0
KCL1 140310Z 10006KT 23/18 A3015 RMK A01 T02270184  RH  077%=      5-min Rain = 0
KCL1 140311Z 10007KT 23/19 A3015 RMK A01 T02270185  RH  077%=      5-min Rain = 0
KCL1 140312Z 10007KT 23/18 A3015 RMK A01 T02260184  RH  077%=      5-min Rain = 0
KCL1 140313Z 10007KT 23/19 A3015 RMK A01 T02260185  RH  077%=      5-min Rain = 0
KCL1 140314Z 10007KT 23/18 A3015 RMK A01 T02260184  RH  077%=      5-min Rain = 0
KCL1 140315Z 10008KT 23/19 A3015 RMK A01 T02260185  RH  077%=      5-min Rain = 0
KCL1 140316Z 10007KT 23/18 A3015 RMK A01 T02260184  RH  077%=      5-min Rain = 0
KCL1 140317Z 10007KT 23/18 A3015 RMK A01 T02260184  RH  077%=      5-min Rain = 0
KCL1 140318Z 10007KT 23/18 A3015 RMK A01 T02260184  RH  077%=      5-min Rain = 0
KCL1 140319Z 10007KT 23/18 A3015 RMK A01 T02270184  RH  077%=      5-min Rain = 0
KCL1 140320Z 10006KT 23/18 A3015 RMK A01 T02270184  RH  077%=      5-min Rain = 0
KCL1 140321Z 10006KT 23/18 A3015 RMK A01 T02270184  RH  077%=      5-min Rain = 0
KCL1 140322Z 10006KT 23/18 A3015 RMK A01 T02260184  RH  077%=      5-min Rain = 0
KCL1 140323Z 10006KT 23/18 A3016 RMK A01 T02260184  RH  077%=      5-min Rain = 0
KCL1 140324Z 10006KT 23/18 A3016 RMK A01 T02250184  RH  077%=      5-min Rain = 0
KCL1 140325Z 10006KT 23/18 A3016 RMK A01 T02250184  RH  077%=      5-min Rain = 0
KCL1 140326Z 09006KT 23/19 A3016 RMK A01 T02250185  RH  078%=      5-min Rain = 0
KCL1 140327Z 09006KT 23/19 A3016 RMK A01 T02250185  RH  078%=      5-min Rain = 0
KCL1 140328Z 09006KT 22/18 A3016 RMK A01 T02240184  RH  078%=      5-min Rain = 0
KCL1 140329Z 09006KT 22/18 A3016 RMK A01 T02240184  RH  078%=      5-min Rain = 0
KCL1 140330Z 09006KT 22/19 A3016 RMK A01 T02240185  RH  078%=      5-min Rain = 0
KCL1 140331Z 09006KT 22/18 A3016 RMK A01 T02230184  RH  079%=      5-min Rain = 0
KCL1 140332Z 09006KT 22/19 A3016 RMK A01 T02230185  RH  079%=      5-min Rain = 0
KCL1 140333Z 08006KT 22/18 A3016 RMK A01 T02230184  RH  079%=      5-min Rain = 0
KCL1 140334Z 08007KT 22/18 A3016 RMK A01 T02230184  RH  079%=      5-min Rain = 0
KCL1 140335Z 08007KT 22/18 A3016 RMK A01 T02230184  RH  079%=      5-min Rain = 0
KCL1 140336Z 08007KT 22/18 A3016 RMK A01 T02230184  RH  079%=      5-min Rain = 0
KCL1 140337Z 08007KT 22/19 A3016 RMK A01 T02240185  RH  079%=      5-min Rain = 0
KCL1 140338Z 08007KT 22/19 A3016 RMK A01 T02240185  RH  079%=      5-min Rain = 0
KCL1 140339Z 08008KT 22/19 A3016 RMK A01 T02240185  RH  079%=      5-min Rain = 0
KCL1 140340Z 08008KT 23/19 A3016 RMK A01 T02250185  RH  078%=      5-min Rain = 0
KCL1 140341Z 08008KT 23/19 A3016 RMK A01 T02260186  RH  078%=      5-min Rain = 0
KCL1 140342Z 08008KT 23/19 A3016 RMK A01 T02260186  RH  078%=      5-min Rain = 0
KCL1 140343Z 08008KT 23/19 A3016 RMK A01 T02270186  RH  078%=      5-min Rain = 0
KCL1 140344Z 09008KT 23/19 A3016 RMK A01 T02270186  RH  077%=      5-min Rain = 0
KCL1 140345Z 09008KT 23/19 A3016 RMK A01 T02280186  RH  077%=      5-min Rain = 0
KCL1 140346Z 09008KT 23/19 A3016 RMK A01 T02280186  RH  077%=      5-min Rain = 0
KCL1 140347Z 09008KT 23/19 A3016 RMK A01 T02290186  RH  077%=      5-min Rain = 0
KCL1 140348Z 10007KT 23/19 A3016 RMK A01 T02280185  RH  077%=      5-min Rain = 0
KCL1 140349Z 10008KT 23/19 A3016 RMK A01 T02280185  RH  077%=      5-min Rain = 0
KCL1 140350Z 10008KT 23/19 A3016 RMK A01 T02270185  RH  077%=      5-min Rain = 0
KCL1 140351Z 10008KT 23/19 A3016 RMK A01 T02270185  RH  077%=      5-min Rain = 0
KCL1 140352Z 10008KT 23/19 A3016 RMK A01 T02260185  RH  078%=      5-min Rain = 0
KCL1 140353Z 10008KT 23/19 A3016 RMK A01 T02250185  RH  078%=      5-min Rain = 0
KCL1 140354Z 10008KT 23/19 A3016 RMK A01 T02250185  RH  078%=      5-min Rain = 0
KCL1 140355Z 10008KT 23/19 A3016 RMK A01 T02250185  RH  078%=      5-min Rain = 0
KCL1 140356Z 10009KT 22/19 A3016 RMK A01 T02240185  RH  078%=      5-min Rain = 0
KCL1 140357Z 10009KT 22/19 A3016 RMK A01 T02240185  RH  079%=      5-min Rain = 0
KCL1 140358Z 10008KT 22/19 A3015 RMK A01 T02230185  RH  079%=      5-min Rain = 0
KCL1 140359Z 10009KT 22/19 A3015 RMK A01 T02230185  RH  079%=      5-min Rain = 0
KCL1 140400Z 10009KT 22/18 A3015 RMK A01 T02230184  RH  079%=      5-min Rain = 0
KCL1 140401Z 11009KT 22/18 A3015 RMK A01 T02230184  RH  079%=      5-min Rain = 0
KCL1 140402Z 10010KT 22/18 A3015 RMK A01 T02230184  RH  078%=      5-min Rain = 0
KCL1 140403Z 10010KT 22/18 A3015 RMK A01 T02240184  RH  078%=      5-min Rain = 0
KCL1 140404Z 10010KT 23/18 A3015 RMK A01 T02250184  RH  077%=      5-min Rain = 0
KCL1 140405Z 10010KT 23/18 A3015 RMK A01 T02250183  RH  077%=      5-min Rain = 0
KCL1 140406Z 10010KT 23/18 A3015 RMK A01 T02270184  RH  077%=      5-min Rain = 0
KCL1 140407Z 10010KT 23/18 A3015 RMK A01 T02280184  RH  076%=      5-min Rain = 0
KCL1 140408Z 10009KT 23/18 A3016 RMK A01 T02290184  RH  076%=      5-min Rain = 0
KCL1 140409Z 10009KT 23/18 A3016 RMK A01 T02290183  RH  075%=      5-min Rain = 0
KCL1 140410Z 10008KT 23/18 A3016 RMK A01 T02300184  RH  075%=      5-min Rain = 0
KCL1 140411Z 10009KT 23/18 A3016 RMK A01 T02300184  RH  075%=      5-min Rain = 0
KCL1 140412Z 10009KT 23/18 A3016 RMK A01 T02310184  RH  075%=      5-min Rain = 0
KCL1 140413Z 09009KT 23/18 A3016 RMK A01 T02310184  RH  075%=      5-min Rain = 0
KCL1 140414Z 09009KT 23/18 A3016 RMK A01 T02310183  RH  075%=      5-min Rain = 0
KCL1 140415Z 09009KT 23/18 A3016 RMK A01 T02310184  RH  075%=      5-min Rain = 0
KCL1 140416Z 10009KT 23/18 A3016 RMK A01 T02310184  RH  075%=      5-min Rain = 0
KCL1 140417Z 09009KT 23/18 A3017 RMK A01 T02310183  RH  074%=      5-min Rain = 0
KCL1 140418Z 09009KT 23/18 A3017 RMK A01 T02310183  RH  074%=      5-min Rain = 0
KCL1 140419Z 09008KT 23/18 A3017 RMK A01 T02310183  RH  074%=      5-min Rain = 0
KCL1 140420Z 09008KT 23/18 A3017 RMK A01 T02310183  RH  074%=      5-min Rain = 0
KCL1 140421Z 10009KT 23/18 A3017 RMK A01 T02310183  RH  074%=      5-min Rain = 0
KCL1 140422Z 09009KT 23/18 A3017 RMK A01 T02310183  RH  074%=      5-min Rain = 0
KCL1 140423Z 09009KT 23/18 A3017 RMK A01 T02310184  RH  075%=      5-min Rain = 0
KCL1 140424Z 09008KT 23/18 A3017 RMK A01 T02310183  RH  075%=      5-min Rain = 0
KCL1 140425Z 09008KT 23/18 A3017 RMK A01 T02310184  RH  075%=      5-min Rain = 0
KCL1 140426Z 09008KT 23/18 A3017 RMK A01 T02300184  RH  075%=      5-min Rain = 0
KCL1 140427Z 09008KT 23/18 A3017 RMK A01 T02290184  RH  076%=      5-min Rain = 0
KCL1 140428Z 09009KT 23/18 A3017 RMK A01 T02280183  RH  076%=      5-min Rain = 0
KCL1 140429Z 09009KT 23/18 A3017 RMK A01 T02280184  RH  076%=      5-min Rain = 0
KCL1 140430Z 09009KT 23/18 A3017 RMK A01 T02280184  RH  076%=      5-min Rain = 0
KCL1 140431Z 09009KT 23/18 A3017 RMK A01 T02270184  RH  076%=      5-min Rain = 0
KCL1 140432Z 09010KT 23/18 A3017 RMK A01 T02270184  RH  076%=      5-min Rain = 0
KCL1 140433Z 09009KT 23/18 A3017 RMK A01 T02270183  RH  077%=      5-min Rain = 0
KCL1 140434Z 08009KT 23/18 A3017 RMK A01 T02270184  RH  077%=      5-min Rain = 0
KCL1 140435Z 08009KT 23/18 A3017 RMK A01 T02260184  RH  077%=      5-min Rain = 0
KCL1 140436Z 08009KT 23/18 A3017 RMK A01 T02250184  RH  078%=      5-min Rain = 0
KCL1 140437Z 08008KT 23/19 A3017 RMK A01 T02250185  RH  078%=      5-min Rain = 0
KCL1 140438Z 08009KT 23/18 A3018 RMK A01 T02250184  RH  078%=      5-min Rain = 0
KCL1 140439Z 07009KT 22/18 A3018 RMK A01 T02240184  RH  078%=      5-min Rain = 0
KCL1 140440Z 07009KT 22/18 A3018 RMK A01 T02240184  RH  078%=      5-min Rain = 0
KCL1 140441Z 07008KT 22/18 A3018 RMK A01 T02240184  RH  078%=      5-min Rain = 0
KCL1 140442Z 07009KT 22/18 A3018 RMK A01 T02240184  RH  078%=      5-min Rain = 0
KCL1 140443Z 07009KT 23/19 A3018 RMK A01 T02250185  RH  078%=      5-min Rain = 0
KCL1 140444Z 07010KT 22/18 A3018 RMK A01 T02240184  RH  078%=      5-min Rain = 0
KCL1 140445Z 07010KT 23/18 A3018 RMK A01 T02250184  RH  078%=      5-min Rain = 0
KCL1 140446Z 07009KT 23/18 A3018 RMK A01 T02250184  RH  077%=      5-min Rain = 0
KCL1 140447Z 07010KT 23/18 A3018 RMK A01 T02260184  RH  077%=      5-min Rain = 0
KCL1 140448Z 07009KT 23/18 A3018 RMK A01 T02260183  RH  077%=      5-min Rain = 0
KCL1 140449Z 07010KT 23/18 A3018 RMK A01 T02270184  RH  077%=      5-min Rain = 0
KCL1 140450Z 07010KT 23/18 A3018 RMK A01 T02270183  RH  076%=      5-min Rain = 0
KCL1 140451Z 07010KT 23/18 A3018 RMK A01 T02270183  RH  076%=      5-min Rain = 0
KCL1 140452Z 08010KT 23/18 A3018 RMK A01 T02270183  RH  076%=      5-min Rain = 0
KCL1 140453Z 08009KT 23/18 A3018 RMK A01 T02270183  RH  076%=      5-min Rain = 0
KCL1 140454Z 08010KT 23/18 A3018 RMK A01 T02280183  RH  076%=      5-min Rain = 0
KCL1 140455Z 07009KT 23/18 A3018 RMK A01 T02280183  RH  076%=      5-min Rain = 0
KCL1 140456Z 08010KT 23/18 A3018 RMK A01 T02280183  RH  076%=      5-min Rain = 0
KCL1 140457Z 07009KT 23/18 A3018 RMK A01 T02280183  RH  076%=      5-min Rain = 0
KCL1 140458Z 07009KT 23/18 A3018 RMK A01 T02280183  RH  076%=      5-min Rain = 0
KCL1 140459Z 07009KT 23/18 A3018 RMK A01 T02280183  RH  076%=      5-min Rain = 0

Page generated in 0.0724 seconds.